<?xml version="1.0" encoding="UTF-8" standalone="yes"?>
<?xml-stylesheet type="text/xsl" href="details.xsl"?>
<gpx
 version="1.1"
 creator="My Tracks for the G1 running Android"
 xmlns:xsi="http://www.w3.org/2001/XMLSchema-instance"
 xmlns="http://www.topografix.com/GPX/1/1"
 xmlns:topografix="http://www.topografix.com/GPX/Private/TopoGrafix/0/1" xsi:schemaLocation="http://www.topografix.com/GPX/1/1 http://www.topografix.com/GPX/1/1/gpx.xsd http://www.topografix.com/GPX/Private/TopoGrafix/0/1 http://www.topografix.com/GPX/Private/TopoGrafix/0/1/topografix.xsd">
<trk>
<name><![CDATA[2011-04-30 18:26]]></name>
<desc><![CDATA[]]></desc>
<number>17</number>
<extensions><topografix:color>c0c0c0</topografix:color></extensions>
<trkseg>
<trkpt lat="45.50778" lon="13.5852">
<ele>-34</ele>
<time>2011-04-30T16:40:39Z</time>
</trkpt>
<trkpt lat="45.5079" lon="13.58516">
<ele>-20</ele>
<time>2011-04-30T16:40:40Z</time>
</trkpt>
<trkpt lat="45.5079" lon="13.58516">
<ele>-20</ele>
<time>2011-04-30T16:40:40Z</time>
</trkpt>
<trkpt lat="45.5079" lon="13.58516">
<ele>-20</ele>
<time>2011-04-30T16:40:43Z</time>
</trkpt>
<trkpt lat="45.50799" lon="13.58509">
<ele>-10</ele>
<time>2011-04-30T16:40:44Z</time>
</trkpt>
<trkpt lat="45.50799" lon="13.58509">
<ele>-10</ele>
<time>2011-04-30T16:40:44Z</time>
</trkpt>
<trkpt lat="45.50799" lon="13.58509">
<ele>-10</ele>
<time>2011-04-30T16:40:49Z</time>
</trkpt>
<trkpt lat="45.50809" lon="13.58497">
<ele>-4</ele>
<time>2011-04-30T16:40:50Z</time>
</trkpt>
<trkpt lat="45.50809" lon="13.58497">
<ele>-4</ele>
<time>2011-04-30T16:40:50Z</time>
</trkpt>
<trkpt lat="45.50809" lon="13.58497">
<ele>-4</ele>
<time>2011-04-30T16:40:52Z</time>
</trkpt>
<trkpt lat="45.50813" lon="13.58481">
<ele>3</ele>
<time>2011-04-30T16:40:53Z</time>
</trkpt>
<trkpt lat="45.50813" lon="13.58481">
<ele>3</ele>
<time>2011-04-30T16:40:53Z</time>
</trkpt>
<trkpt lat="45.50813" lon="13.58481">
<ele>3</ele>
<time>2011-04-30T16:40:55Z</time>
</trkpt>
<trkpt lat="45.50816" lon="13.58465">
<ele>10</ele>
<time>2011-04-30T16:40:56Z</time>
</trkpt>
<trkpt lat="45.50816" lon="13.58465">
<ele>10</ele>
<time>2011-04-30T16:40:56Z</time>
</trkpt>
<trkpt lat="45.50816" lon="13.58465">
<ele>10</ele>
<time>2011-04-30T16:40:59Z</time>
</trkpt>
<trkpt lat="45.50821" lon="13.58451">
<ele>17</ele>
<time>2011-04-30T16:41:00Z</time>
</trkpt>
<trkpt lat="45.50821" lon="13.58451">
<ele>17</ele>
<time>2011-04-30T16:41:00Z</time>
</trkpt>
<trkpt lat="45.50821" lon="13.58451">
<ele>17</ele>
<time>2011-04-30T16:41:04Z</time>
</trkpt>
<trkpt lat="45.50827" lon="13.58439">
<ele>29</ele>
<time>2011-04-30T16:41:05Z</time>
</trkpt>
<trkpt lat="45.5083" lon="13.58433">
<ele>31</ele>
<time>2011-04-30T16:41:08Z</time>
</trkpt>
<trkpt lat="45.50834" lon="13.58428">
<ele>31</ele>
<time>2011-04-30T16:41:11Z</time>
</trkpt>
<trkpt lat="45.50837" lon="13.58422">
<ele>32</ele>
<time>2011-04-30T16:41:14Z</time>
</trkpt>
<trkpt lat="45.50841" lon="13.58416">
<ele>32</ele>
<time>2011-04-30T16:41:17Z</time>
</trkpt>
<trkpt lat="45.50845" lon="13.58409">
<ele>32</ele>
<time>2011-04-30T16:41:20Z</time>
</trkpt>
<trkpt lat="45.50848" lon="13.58402">
<ele>32</ele>
<time>2011-04-30T16:41:23Z</time>
</trkpt>
<trkpt lat="45.5085" lon="13.58395">
<ele>33</ele>
<time>2011-04-30T16:41:26Z</time>
</trkpt>
<trkpt lat="45.50853" lon="13.58388">
<ele>33</ele>
<time>2011-04-30T16:41:29Z</time>
</trkpt>
<trkpt lat="45.50856" lon="13.5838">
<ele>33</ele>
<time>2011-04-30T16:41:32Z</time>
</trkpt>
<trkpt lat="45.50862" lon="13.58366">
<ele>59</ele>
<time>2011-04-30T16:41:37Z</time>
</trkpt>
<trkpt lat="45.50862" lon="13.58366">
<ele>59</ele>
<time>2011-04-30T16:41:37Z</time>
</trkpt>
<trkpt lat="45.50862" lon="13.58366">
<ele>59</ele>
<time>2011-04-30T16:41:47Z</time>
</trkpt>
<trkpt lat="45.50868" lon="13.58353">
<ele>57</ele>
<time>2011-04-30T16:41:48Z</time>
</trkpt>
<trkpt lat="45.50868" lon="13.58353">
<ele>57</ele>
<time>2011-04-30T16:41:48Z</time>
</trkpt>
<trkpt lat="45.50868" lon="13.58353">
<ele>57</ele>
<time>2011-04-30T16:41:49Z</time>
</trkpt>
<trkpt lat="45.50871" lon="13.58343">
<ele>56</ele>
<time>2011-04-30T16:41:50Z</time>
</trkpt>
<trkpt lat="45.50871" lon="13.58343">
<ele>56</ele>
<time>2011-04-30T16:41:50Z</time>
</trkpt>
<trkpt lat="45.50871" lon="13.58343">
<ele>56</ele>
<time>2011-04-30T16:41:51Z</time>
</trkpt>
<trkpt lat="45.50872" lon="13.58336">
<ele>54</ele>
<time>2011-04-30T16:41:52Z</time>
</trkpt>
<trkpt lat="45.50872" lon="13.58336">
<ele>54</ele>
<time>2011-04-30T16:41:52Z</time>
</trkpt>
<trkpt lat="45.50872" lon="13.58336">
<ele>54</ele>
<time>2011-04-30T16:41:54Z</time>
</trkpt>
<trkpt lat="45.50875" lon="13.58328">
<ele>52</ele>
<time>2011-04-30T16:41:55Z</time>
</trkpt>
<trkpt lat="45.50875" lon="13.58328">
<ele>52</ele>
<time>2011-04-30T16:41:55Z</time>
</trkpt>
<trkpt lat="45.50875" lon="13.58328">
<ele>52</ele>
<time>2011-04-30T16:41:57Z</time>
</trkpt>
<trkpt lat="45.50877" lon="13.58321">
<ele>52</ele>
<time>2011-04-30T16:41:58Z</time>
</trkpt>
<trkpt lat="45.50877" lon="13.58321">
<ele>52</ele>
<time>2011-04-30T16:41:58Z</time>
</trkpt>
<trkpt lat="45.50877" lon="13.58321">
<ele>52</ele>
<time>2011-04-30T16:42:00Z</time>
</trkpt>
<trkpt lat="45.50879" lon="13.58314">
<ele>51</ele>
<time>2011-04-30T16:42:01Z</time>
</trkpt>
<trkpt lat="45.50879" lon="13.58314">
<ele>51</ele>
<time>2011-04-30T16:42:01Z</time>
</trkpt>
<trkpt lat="45.50879" lon="13.58314">
<ele>51</ele>
<time>2011-04-30T16:42:03Z</time>
</trkpt>
<trkpt lat="45.50881" lon="13.58308">
<ele>51</ele>
<time>2011-04-30T16:42:04Z</time>
</trkpt>
<trkpt lat="45.50881" lon="13.58308">
<ele>51</ele>
<time>2011-04-30T16:42:04Z</time>
</trkpt>
<trkpt lat="45.50881" lon="13.58308">
<ele>51</ele>
<time>2011-04-30T16:42:05Z</time>
</trkpt>
<trkpt lat="45.50883" lon="13.583">
<ele>50</ele>
<time>2011-04-30T16:42:07Z</time>
</trkpt>
<trkpt lat="45.50885" lon="13.58293">
<ele>50</ele>
<time>2011-04-30T16:42:10Z</time>
</trkpt>
<trkpt lat="45.50887" lon="13.58286">
<ele>50</ele>
<time>2011-04-30T16:42:13Z</time>
</trkpt>
<trkpt lat="45.50889" lon="13.5828">
<ele>50</ele>
<time>2011-04-30T16:42:16Z</time>
</trkpt>
<trkpt lat="45.50892" lon="13.58273">
<ele>49</ele>
<time>2011-04-30T16:42:19Z</time>
</trkpt>
<trkpt lat="45.50895" lon="13.58268">
<ele>49</ele>
<time>2011-04-30T16:42:22Z</time>
</trkpt>
<trkpt lat="45.50899" lon="13.58262">
<ele>49</ele>
<time>2011-04-30T16:42:26Z</time>
</trkpt>
<trkpt lat="45.50905" lon="13.58262">
<ele>49</ele>
<time>2011-04-30T16:42:30Z</time>
</trkpt>
<trkpt lat="45.50909" lon="13.58266">
<ele>49</ele>
<time>2011-04-30T16:42:34Z</time>
</trkpt>
<trkpt lat="45.50912" lon="13.5827">
<ele>49</ele>
<time>2011-04-30T16:42:37Z</time>
</trkpt>
<trkpt lat="45.50914" lon="13.58278">
<ele>49</ele>
<time>2011-04-30T16:42:40Z</time>
</trkpt>
<trkpt lat="45.50913" lon="13.58287">
<ele>49</ele>
<time>2011-04-30T16:42:43Z</time>
</trkpt>
<trkpt lat="45.50911" lon="13.58296">
<ele>49</ele>
<time>2011-04-30T16:42:46Z</time>
</trkpt>
<trkpt lat="45.5091" lon="13.58304">
<ele>49</ele>
<time>2011-04-30T16:42:49Z</time>
</trkpt>
<trkpt lat="45.50909" lon="13.58311">
<ele>49</ele>
<time>2011-04-30T16:42:52Z</time>
</trkpt>
<trkpt lat="45.50908" lon="13.58318">
<ele>49</ele>
<time>2011-04-30T16:42:55Z</time>
</trkpt>
<trkpt lat="45.50908" lon="13.58325">
<ele>49</ele>
<time>2011-04-30T16:42:58Z</time>
</trkpt>
<trkpt lat="45.50907" lon="13.58332">
<ele>49</ele>
<time>2011-04-30T16:43:01Z</time>
</trkpt>
<trkpt lat="45.50906" lon="13.5834">
<ele>49</ele>
<time>2011-04-30T16:43:04Z</time>
</trkpt>
<trkpt lat="45.50905" lon="13.58347">
<ele>49</ele>
<time>2011-04-30T16:43:07Z</time>
</trkpt>
<trkpt lat="45.50904" lon="13.58354">
<ele>49</ele>
<time>2011-04-30T16:43:10Z</time>
</trkpt>
<trkpt lat="45.50904" lon="13.58361">
<ele>49</ele>
<time>2011-04-30T16:43:13Z</time>
</trkpt>
<trkpt lat="45.50903" lon="13.58368">
<ele>49</ele>
<time>2011-04-30T16:43:16Z</time>
</trkpt>
<trkpt lat="45.50902" lon="13.58376">
<ele>49</ele>
<time>2011-04-30T16:43:19Z</time>
</trkpt>
<trkpt lat="45.50902" lon="13.58384">
<ele>49</ele>
<time>2011-04-30T16:43:22Z</time>
</trkpt>
<trkpt lat="45.50902" lon="13.58391">
<ele>49</ele>
<time>2011-04-30T16:43:25Z</time>
</trkpt>
<trkpt lat="45.50902" lon="13.58398">
<ele>49</ele>
<time>2011-04-30T16:43:28Z</time>
</trkpt>
<trkpt lat="45.50901" lon="13.58406">
<ele>49</ele>
<time>2011-04-30T16:43:31Z</time>
</trkpt>
<trkpt lat="45.509" lon="13.58414">
<ele>49</ele>
<time>2011-04-30T16:43:34Z</time>
</trkpt>
<trkpt lat="45.50901" lon="13.58422">
<ele>49</ele>
<time>2011-04-30T16:43:37Z</time>
</trkpt>
<trkpt lat="45.50902" lon="13.58429">
<ele>49</ele>
<time>2011-04-30T16:43:40Z</time>
</trkpt>
<trkpt lat="45.50904" lon="13.58436">
<ele>49</ele>
<time>2011-04-30T16:43:44Z</time>
</trkpt>
<trkpt lat="45.50906" lon="13.58442">
<ele>49</ele>
<time>2011-04-30T16:43:48Z</time>
</trkpt>
<trkpt lat="45.50907" lon="13.58449">
<ele>49</ele>
<time>2011-04-30T16:43:52Z</time>
</trkpt>
<trkpt lat="45.50907" lon="13.58456">
<ele>49</ele>
<time>2011-04-30T16:43:56Z</time>
</trkpt>
<trkpt lat="45.50907" lon="13.58462">
<ele>49</ele>
<time>2011-04-30T16:44:00Z</time>
</trkpt>
<trkpt lat="45.50908" lon="13.58469">
<ele>49</ele>
<time>2011-04-30T16:44:04Z</time>
</trkpt>
<trkpt lat="45.50909" lon="13.58475">
<ele>49</ele>
<time>2011-04-30T16:44:08Z</time>
</trkpt>
<trkpt lat="45.50913" lon="13.5848">
<ele>49</ele>
<time>2011-04-30T16:44:13Z</time>
</trkpt>
<trkpt lat="45.50917" lon="13.58482">
<ele>49</ele>
<time>2011-04-30T16:44:20Z</time>
</trkpt>
<trkpt lat="45.50922" lon="13.5848">
<ele>49</ele>
<time>2011-04-30T16:44:28Z</time>
</trkpt>
<trkpt lat="45.50925" lon="13.58474">
<ele>48</ele>
<time>2011-04-30T16:44:35Z</time>
</trkpt>
<trkpt lat="45.50927" lon="13.58469">
<ele>48</ele>
<time>2011-04-30T16:44:42Z</time>
</trkpt>
<trkpt lat="45.50928" lon="13.58463">
<ele>48</ele>
<time>2011-04-30T16:44:51Z</time>
</trkpt>
<trkpt lat="45.50926" lon="13.58457">
<ele>48</ele>
<time>2011-04-30T16:45:08Z</time>
</trkpt>
<trkpt lat="45.50922" lon="13.58453">
<ele>48</ele>
<time>2011-04-30T16:45:15Z</time>
</trkpt>
<trkpt lat="45.50918" lon="13.5845">
<ele>48</ele>
<time>2011-04-30T16:45:30Z</time>
</trkpt>
<trkpt lat="45.50914" lon="13.5845">
<ele>48</ele>
<time>2011-04-30T16:45:56Z</time>
</trkpt>
<trkpt lat="45.50911" lon="13.58445">
<ele>48</ele>
<time>2011-04-30T16:46:08Z</time>
</trkpt>
<trkpt lat="45.50908" lon="13.58438">
<ele>48</ele>
<time>2011-04-30T16:46:16Z</time>
</trkpt>
<trkpt lat="45.50906" lon="13.58432">
<ele>48</ele>
<time>2011-04-30T16:46:26Z</time>
</trkpt>
<trkpt lat="45.50905" lon="13.58426">
<ele>48</ele>
<time>2011-04-30T16:46:36Z</time>
</trkpt>
<trkpt lat="45.50904" lon="13.58419">
<ele>49</ele>
<time>2011-04-30T16:46:48Z</time>
</trkpt>
<trkpt lat="45.50904" lon="13.58413">
<ele>48</ele>
<time>2011-04-30T16:47:07Z</time>
</trkpt>
<trkpt lat="45.50905" lon="13.58405">
<ele>48</ele>
<time>2011-04-30T16:47:13Z</time>
</trkpt>
<trkpt lat="45.50905" lon="13.58399">
<ele>48</ele>
<time>2011-04-30T16:47:16Z</time>
</trkpt>
<trkpt lat="45.50905" lon="13.58392">
<ele>48</ele>
<time>2011-04-30T16:47:19Z</time>
</trkpt>
<trkpt lat="45.50905" lon="13.58384">
<ele>48</ele>
<time>2011-04-30T16:47:23Z</time>
</trkpt>
<trkpt lat="45.50907" lon="13.58378">
<ele>48</ele>
<time>2011-04-30T16:47:27Z</time>
</trkpt>
<trkpt lat="45.50912" lon="13.58376">
<ele>48</ele>
<time>2011-04-30T16:47:33Z</time>
</trkpt>
<trkpt lat="45.50916" lon="13.58377">
<ele>48</ele>
<time>2011-04-30T16:47:39Z</time>
</trkpt>
<trkpt lat="45.50919" lon="13.58382">
<ele>48</ele>
<time>2011-04-30T16:47:44Z</time>
</trkpt>
<trkpt lat="45.5092" lon="13.58389">
<ele>48</ele>
<time>2011-04-30T16:47:48Z</time>
</trkpt>
<trkpt lat="45.50921" lon="13.58397">
<ele>48</ele>
<time>2011-04-30T16:47:52Z</time>
</trkpt>
<trkpt lat="45.50921" lon="13.58404">
<ele>48</ele>
<time>2011-04-30T16:47:55Z</time>
</trkpt>
<trkpt lat="45.5092" lon="13.58412">
<ele>48</ele>
<time>2011-04-30T16:47:58Z</time>
</trkpt>
<trkpt lat="45.50918" lon="13.58419">
<ele>48</ele>
<time>2011-04-30T16:48:01Z</time>
</trkpt>
<trkpt lat="45.50916" lon="13.58425">
<ele>48</ele>
<time>2011-04-30T16:48:04Z</time>
</trkpt>
<trkpt lat="45.50913" lon="13.5843">
<ele>48</ele>
<time>2011-04-30T16:48:07Z</time>
</trkpt>
<trkpt lat="45.5091" lon="13.58436">
<ele>48</ele>
<time>2011-04-30T16:48:10Z</time>
</trkpt>
<trkpt lat="45.50907" lon="13.58442">
<ele>48</ele>
<time>2011-04-30T16:48:13Z</time>
</trkpt>
<trkpt lat="45.50903" lon="13.58449">
<ele>48</ele>
<time>2011-04-30T16:48:16Z</time>
</trkpt>
<trkpt lat="45.509" lon="13.58456">
<ele>48</ele>
<time>2011-04-30T16:48:19Z</time>
</trkpt>
<trkpt lat="45.50898" lon="13.58463">
<ele>48</ele>
<time>2011-04-30T16:48:22Z</time>
</trkpt>
<trkpt lat="45.50895" lon="13.5847">
<ele>48</ele>
<time>2011-04-30T16:48:25Z</time>
</trkpt>
<trkpt lat="45.50893" lon="13.58475">
<ele>49</ele>
<time>2011-04-30T16:48:28Z</time>
</trkpt>
<trkpt lat="45.50888" lon="13.58477">
<ele>49</ele>
<time>2011-04-30T16:48:31Z</time>
</trkpt>
<trkpt lat="45.50883" lon="13.58476">
<ele>49</ele>
<time>2011-04-30T16:48:35Z</time>
</trkpt>
<trkpt lat="45.50879" lon="13.58471">
<ele>49</ele>
<time>2011-04-30T16:48:39Z</time>
</trkpt>
<trkpt lat="45.50877" lon="13.58464">
<ele>49</ele>
<time>2011-04-30T16:48:43Z</time>
</trkpt>
<trkpt lat="45.50877" lon="13.58457">
<ele>49</ele>
<time>2011-04-30T16:48:48Z</time>
</trkpt>
<trkpt lat="45.5088" lon="13.58451">
<ele>49</ele>
<time>2011-04-30T16:48:53Z</time>
</trkpt>
<trkpt lat="45.50884" lon="13.58446">
<ele>49</ele>
<time>2011-04-30T16:48:58Z</time>
</trkpt>
<trkpt lat="45.50887" lon="13.58441">
<ele>49</ele>
<time>2011-04-30T16:49:03Z</time>
</trkpt>
<trkpt lat="45.5089" lon="13.58436">
<ele>49</ele>
<time>2011-04-30T16:49:07Z</time>
</trkpt>
<trkpt lat="45.50894" lon="13.5843">
<ele>49</ele>
<time>2011-04-30T16:49:12Z</time>
</trkpt>
<trkpt lat="45.50898" lon="13.58424">
<ele>49</ele>
<time>2011-04-30T16:49:17Z</time>
</trkpt>
<trkpt lat="45.50901" lon="13.58418">
<ele>49</ele>
<time>2011-04-30T16:49:22Z</time>
</trkpt>
<trkpt lat="45.50905" lon="13.58413">
<ele>49</ele>
<time>2011-04-30T16:49:27Z</time>
</trkpt>
<trkpt lat="45.50908" lon="13.58409">
<ele>49</ele>
<time>2011-04-30T16:49:32Z</time>
</trkpt>
<trkpt lat="45.50912" lon="13.58404">
<ele>49</ele>
<time>2011-04-30T16:49:38Z</time>
</trkpt>
<trkpt lat="45.50914" lon="13.58398">
<ele>49</ele>
<time>2011-04-30T16:49:45Z</time>
</trkpt>
<trkpt lat="45.50916" lon="13.58392">
<ele>49</ele>
<time>2011-04-30T16:49:51Z</time>
</trkpt>
<trkpt lat="45.50918" lon="13.58385">
<ele>49</ele>
<time>2011-04-30T16:49:56Z</time>
</trkpt>
<trkpt lat="45.50918" lon="13.58378">
<ele>49</ele>
<time>2011-04-30T16:50:00Z</time>
</trkpt>
<trkpt lat="45.50919" lon="13.58371">
<ele>49</ele>
<time>2011-04-30T16:50:04Z</time>
</trkpt>
<trkpt lat="45.50918" lon="13.58364">
<ele>49</ele>
<time>2011-04-30T16:50:08Z</time>
</trkpt>
<trkpt lat="45.50917" lon="13.58357">
<ele>49</ele>
<time>2011-04-30T16:50:13Z</time>
</trkpt>
<trkpt lat="45.50914" lon="13.58351">
<ele>49</ele>
<time>2011-04-30T16:50:18Z</time>
</trkpt>
<trkpt lat="45.5091" lon="13.58347">
<ele>49</ele>
<time>2011-04-30T16:50:24Z</time>
</trkpt>
<trkpt lat="45.50905" lon="13.58348">
<ele>49</ele>
<time>2011-04-30T16:50:30Z</time>
</trkpt>
<trkpt lat="45.50902" lon="13.58353">
<ele>49</ele>
<time>2011-04-30T16:50:35Z</time>
</trkpt>
<trkpt lat="45.509" lon="13.5836">
<ele>49</ele>
<time>2011-04-30T16:50:44Z</time>
</trkpt>
<trkpt lat="45.50898" lon="13.58365">
<ele>49</ele>
<time>2011-04-30T16:50:51Z</time>
</trkpt>
<trkpt lat="45.50896" lon="13.58372">
<ele>49</ele>
<time>2011-04-30T16:50:58Z</time>
</trkpt>
<trkpt lat="45.50895" lon="13.58379">
<ele>49</ele>
<time>2011-04-30T16:51:02Z</time>
</trkpt>
<trkpt lat="45.50895" lon="13.58387">
<ele>49</ele>
<time>2011-04-30T16:51:06Z</time>
</trkpt>
<trkpt lat="45.50894" lon="13.58393">
<ele>49</ele>
<time>2011-04-30T16:51:09Z</time>
</trkpt>
<trkpt lat="45.50892" lon="13.58399">
<ele>49</ele>
<time>2011-04-30T16:51:12Z</time>
</trkpt>
<trkpt lat="45.5089" lon="13.58406">
<ele>49</ele>
<time>2011-04-30T16:51:15Z</time>
</trkpt>
<trkpt lat="45.50887" lon="13.58411">
<ele>49</ele>
<time>2011-04-30T16:51:18Z</time>
</trkpt>
<trkpt lat="45.50883" lon="13.58416">
<ele>49</ele>
<time>2011-04-30T16:51:21Z</time>
</trkpt>
<trkpt lat="45.50879" lon="13.58419">
<ele>49</ele>
<time>2011-04-30T16:51:24Z</time>
</trkpt>
<trkpt lat="45.50874" lon="13.58423">
<ele>49</ele>
<time>2011-04-30T16:51:27Z</time>
</trkpt>
<trkpt lat="45.5087" lon="13.58426">
<ele>48</ele>
<time>2011-04-30T16:51:30Z</time>
</trkpt>
<trkpt lat="45.50865" lon="13.5843">
<ele>48</ele>
<time>2011-04-30T16:51:33Z</time>
</trkpt>
<trkpt lat="45.50861" lon="13.58433">
<ele>48</ele>
<time>2011-04-30T16:51:36Z</time>
</trkpt>
<trkpt lat="45.50857" lon="13.58438">
<ele>48</ele>
<time>2011-04-30T16:51:39Z</time>
</trkpt>
<trkpt lat="45.50853" lon="13.58444">
<ele>48</ele>
<time>2011-04-30T16:51:42Z</time>
</trkpt>
<trkpt lat="45.5085" lon="13.5845">
<ele>48</ele>
<time>2011-04-30T16:51:45Z</time>
</trkpt>
<trkpt lat="45.50847" lon="13.58455">
<ele>48</ele>
<time>2011-04-30T16:51:48Z</time>
</trkpt>
<trkpt lat="45.50845" lon="13.58461">
<ele>48</ele>
<time>2011-04-30T16:51:51Z</time>
</trkpt>
<trkpt lat="45.50843" lon="13.58467">
<ele>48</ele>
<time>2011-04-30T16:51:54Z</time>
</trkpt>
<trkpt lat="45.5084" lon="13.58474">
<ele>48</ele>
<time>2011-04-30T16:51:58Z</time>
</trkpt>
<trkpt lat="45.50838" lon="13.58482">
<ele>48</ele>
<time>2011-04-30T16:52:02Z</time>
</trkpt>
<trkpt lat="45.50837" lon="13.58489">
<ele>49</ele>
<time>2011-04-30T16:52:05Z</time>
</trkpt>
<trkpt lat="45.5084" lon="13.58498">
<ele>49</ele>
<time>2011-04-30T16:52:08Z</time>
</trkpt>
<trkpt lat="45.50842" lon="13.58506">
<ele>49</ele>
<time>2011-04-30T16:52:11Z</time>
</trkpt>
<trkpt lat="45.50845" lon="13.58513">
<ele>48</ele>
<time>2011-04-30T16:52:14Z</time>
</trkpt>
<trkpt lat="45.50849" lon="13.58517">
<ele>48</ele>
<time>2011-04-30T16:52:17Z</time>
</trkpt>
<trkpt lat="45.50854" lon="13.58518">
<ele>48</ele>
<time>2011-04-30T16:52:20Z</time>
</trkpt>
<trkpt lat="45.5086" lon="13.58517">
<ele>48</ele>
<time>2011-04-30T16:52:24Z</time>
</trkpt>
<trkpt lat="45.50864" lon="13.58511">
<ele>48</ele>
<time>2011-04-30T16:52:28Z</time>
</trkpt>
<trkpt lat="45.50866" lon="13.58504">
<ele>48</ele>
<time>2011-04-30T16:52:32Z</time>
</trkpt>
<trkpt lat="45.50867" lon="13.58498">
<ele>48</ele>
<time>2011-04-30T16:52:36Z</time>
</trkpt>
<trkpt lat="45.50868" lon="13.5849">
<ele>48</ele>
<time>2011-04-30T16:52:41Z</time>
</trkpt>
<trkpt lat="45.5087" lon="13.58482">
<ele>48</ele>
<time>2011-04-30T16:52:46Z</time>
</trkpt>
<trkpt lat="45.50872" lon="13.58476">
<ele>48</ele>
<time>2011-04-30T16:52:51Z</time>
</trkpt>
<trkpt lat="45.50874" lon="13.58468">
<ele>48</ele>
<time>2011-04-30T16:52:56Z</time>
</trkpt>
<trkpt lat="45.50876" lon="13.58462">
<ele>48</ele>
<time>2011-04-30T16:53:00Z</time>
</trkpt>
<trkpt lat="45.50878" lon="13.58456">
<ele>47</ele>
<time>2011-04-30T16:53:04Z</time>
</trkpt>
<trkpt lat="45.5088" lon="13.5845">
<ele>47</ele>
<time>2011-04-30T16:53:08Z</time>
</trkpt>
<trkpt lat="45.50883" lon="13.58444">
<ele>47</ele>
<time>2011-04-30T16:53:13Z</time>
</trkpt>
<trkpt lat="45.50886" lon="13.58438">
<ele>47</ele>
<time>2011-04-30T16:53:18Z</time>
</trkpt>
<trkpt lat="45.50889" lon="13.58433">
<ele>47</ele>
<time>2011-04-30T16:53:23Z</time>
</trkpt>
<trkpt lat="45.50892" lon="13.58428">
<ele>47</ele>
<time>2011-04-30T16:53:28Z</time>
</trkpt>
<trkpt lat="45.50896" lon="13.58423">
<ele>47</ele>
<time>2011-04-30T16:53:34Z</time>
</trkpt>
<trkpt lat="45.50899" lon="13.58417">
<ele>47</ele>
<time>2011-04-30T16:53:41Z</time>
</trkpt>
<trkpt lat="45.50902" lon="13.58413">
<ele>47</ele>
<time>2011-04-30T16:53:48Z</time>
</trkpt>
<trkpt lat="45.50905" lon="13.58408">
<ele>47</ele>
<time>2011-04-30T16:54:03Z</time>
</trkpt>
<trkpt lat="45.50908" lon="13.58402">
<ele>47</ele>
<time>2011-04-30T16:54:10Z</time>
</trkpt>
<trkpt lat="45.5091" lon="13.58396">
<ele>47</ele>
<time>2011-04-30T16:54:13Z</time>
</trkpt>
<trkpt lat="45.50913" lon="13.58388">
<ele>47</ele>
<time>2011-04-30T16:54:16Z</time>
</trkpt>
<trkpt lat="45.50916" lon="13.58381">
<ele>47</ele>
<time>2011-04-30T16:54:19Z</time>
</trkpt>
<trkpt lat="45.50918" lon="13.58375">
<ele>47</ele>
<time>2011-04-30T16:54:22Z</time>
</trkpt>
<trkpt lat="45.50922" lon="13.5837">
<ele>47</ele>
<time>2011-04-30T16:54:26Z</time>
</trkpt>
<trkpt lat="45.50927" lon="13.58367">
<ele>47</ele>
<time>2011-04-30T16:54:31Z</time>
</trkpt>
<trkpt lat="45.50931" lon="13.5837">
<ele>47</ele>
<time>2011-04-30T16:54:36Z</time>
</trkpt>
<trkpt lat="45.50934" lon="13.58376">
<ele>47</ele>
<time>2011-04-30T16:54:41Z</time>
</trkpt>
<trkpt lat="45.50935" lon="13.58382">
<ele>48</ele>
<time>2011-04-30T16:54:46Z</time>
</trkpt>
<trkpt lat="45.50936" lon="13.58389">
<ele>48</ele>
<time>2011-04-30T16:54:51Z</time>
</trkpt>
<trkpt lat="45.50937" lon="13.58397">
<ele>48</ele>
<time>2011-04-30T16:54:55Z</time>
</trkpt>
<trkpt lat="45.50937" lon="13.58404">
<ele>48</ele>
<time>2011-04-30T16:54:58Z</time>
</trkpt>
<trkpt lat="45.50938" lon="13.58411">
<ele>48</ele>
<time>2011-04-30T16:55:01Z</time>
</trkpt>
<trkpt lat="45.50938" lon="13.58418">
<ele>48</ele>
<time>2011-04-30T16:55:04Z</time>
</trkpt>
<trkpt lat="45.50939" lon="13.58425">
<ele>48</ele>
<time>2011-04-30T16:55:07Z</time>
</trkpt>
<trkpt lat="45.5094" lon="13.58431">
<ele>48</ele>
<time>2011-04-30T16:55:10Z</time>
</trkpt>
<trkpt lat="45.50939" lon="13.58438">
<ele>48</ele>
<time>2011-04-30T16:55:13Z</time>
</trkpt>
<trkpt lat="45.50937" lon="13.58446">
<ele>48</ele>
<time>2011-04-30T16:55:16Z</time>
</trkpt>
<trkpt lat="45.50936" lon="13.58452">
<ele>48</ele>
<time>2011-04-30T16:55:19Z</time>
</trkpt>
<trkpt lat="45.50932" lon="13.58457">
<ele>48</ele>
<time>2011-04-30T16:55:22Z</time>
</trkpt>
<trkpt lat="45.50929" lon="13.58463">
<ele>48</ele>
<time>2011-04-30T16:55:25Z</time>
</trkpt>
<trkpt lat="45.50926" lon="13.58468">
<ele>48</ele>
<time>2011-04-30T16:55:28Z</time>
</trkpt>
<trkpt lat="45.50922" lon="13.58474">
<ele>48</ele>
<time>2011-04-30T16:55:31Z</time>
</trkpt>
<trkpt lat="45.50918" lon="13.5848">
<ele>49</ele>
<time>2011-04-30T16:55:34Z</time>
</trkpt>
<trkpt lat="45.50914" lon="13.58486">
<ele>49</ele>
<time>2011-04-30T16:55:37Z</time>
</trkpt>
<trkpt lat="45.50911" lon="13.58492">
<ele>49</ele>
<time>2011-04-30T16:55:40Z</time>
</trkpt>
<trkpt lat="45.50907" lon="13.58498">
<ele>49</ele>
<time>2011-04-30T16:55:43Z</time>
</trkpt>
<trkpt lat="45.50904" lon="13.58504">
<ele>49</ele>
<time>2011-04-30T16:55:46Z</time>
</trkpt>
<trkpt lat="45.509" lon="13.5851">
<ele>49</ele>
<time>2011-04-30T16:55:49Z</time>
</trkpt>
<trkpt lat="45.50896" lon="13.58515">
<ele>49</ele>
<time>2011-04-30T16:55:52Z</time>
</trkpt>
<trkpt lat="45.5089" lon="13.58516">
<ele>49</ele>
<time>2011-04-30T16:55:56Z</time>
</trkpt>
<trkpt lat="45.50886" lon="13.58512">
<ele>49</ele>
<time>2011-04-30T16:56:00Z</time>
</trkpt>
<trkpt lat="45.50883" lon="13.58506">
<ele>48</ele>
<time>2011-04-30T16:56:03Z</time>
</trkpt>
<trkpt lat="45.50883" lon="13.58498">
<ele>48</ele>
<time>2011-04-30T16:56:06Z</time>
</trkpt>
<trkpt lat="45.50884" lon="13.58491">
<ele>48</ele>
<time>2011-04-30T16:56:09Z</time>
</trkpt>
<trkpt lat="45.50886" lon="13.58484">
<ele>48</ele>
<time>2011-04-30T16:56:13Z</time>
</trkpt>
<trkpt lat="45.50888" lon="13.58478">
<ele>48</ele>
<time>2011-04-30T16:56:16Z</time>
</trkpt>
<trkpt lat="45.50889" lon="13.58471">
<ele>48</ele>
<time>2011-04-30T16:56:19Z</time>
</trkpt>
<trkpt lat="45.5089" lon="13.58465">
<ele>48</ele>
<time>2011-04-30T16:56:22Z</time>
</trkpt>
<trkpt lat="45.50892" lon="13.58457">
<ele>48</ele>
<time>2011-04-30T16:56:26Z</time>
</trkpt>
<trkpt lat="45.50893" lon="13.5845">
<ele>48</ele>
<time>2011-04-30T16:56:30Z</time>
</trkpt>
<trkpt lat="45.50894" lon="13.58444">
<ele>47</ele>
<time>2011-04-30T16:56:34Z</time>
</trkpt>
<trkpt lat="45.50895" lon="13.58436">
<ele>47</ele>
<time>2011-04-30T16:56:39Z</time>
</trkpt>
<trkpt lat="45.50896" lon="13.58429">
<ele>47</ele>
<time>2011-04-30T16:56:45Z</time>
</trkpt>
<trkpt lat="45.50898" lon="13.58422">
<ele>47</ele>
<time>2011-04-30T16:56:51Z</time>
</trkpt>
<trkpt lat="45.50899" lon="13.58416">
<ele>47</ele>
<time>2011-04-30T16:56:57Z</time>
</trkpt>
<trkpt lat="45.509" lon="13.58409">
<ele>47</ele>
<time>2011-04-30T16:57:05Z</time>
</trkpt>
<trkpt lat="45.50903" lon="13.58403">
<ele>47</ele>
<time>2011-04-30T16:57:13Z</time>
</trkpt>
<trkpt lat="45.50905" lon="13.58397">
<ele>47</ele>
<time>2011-04-30T16:57:21Z</time>
</trkpt>
<trkpt lat="45.50908" lon="13.58392">
<ele>47</ele>
<time>2011-04-30T16:57:36Z</time>
</trkpt>
<trkpt lat="45.50911" lon="13.58385">
<ele>47</ele>
<time>2011-04-30T16:57:39Z</time>
</trkpt>
<trkpt lat="45.50913" lon="13.58379">
<ele>47</ele>
<time>2011-04-30T16:57:41Z</time>
</trkpt>
<trkpt lat="45.50916" lon="13.5837">
<ele>47</ele>
<time>2011-04-30T16:57:44Z</time>
</trkpt>
<trkpt lat="45.50917" lon="13.58362">
<ele>47</ele>
<time>2011-04-30T16:57:47Z</time>
</trkpt>
<trkpt lat="45.50917" lon="13.58355">
<ele>47</ele>
<time>2011-04-30T16:57:50Z</time>
</trkpt>
<trkpt lat="45.50915" lon="13.58348">
<ele>47</ele>
<time>2011-04-30T16:57:54Z</time>
</trkpt>
<trkpt lat="45.50911" lon="13.58344">
<ele>47</ele>
<time>2011-04-30T16:57:59Z</time>
</trkpt>
<trkpt lat="45.50905" lon="13.58345">
<ele>47</ele>
<time>2011-04-30T16:58:04Z</time>
</trkpt>
<trkpt lat="45.50901" lon="13.58348">
<ele>47</ele>
<time>2011-04-30T16:58:08Z</time>
</trkpt>
<trkpt lat="45.50898" lon="13.58354">
<ele>47</ele>
<time>2011-04-30T16:58:11Z</time>
</trkpt>
<trkpt lat="45.50894" lon="13.5836">
<ele>47</ele>
<time>2011-04-30T16:58:15Z</time>
</trkpt>
<trkpt lat="45.50892" lon="13.58366">
<ele>47</ele>
<time>2011-04-30T16:58:18Z</time>
</trkpt>
<trkpt lat="45.5089" lon="13.58373">
<ele>47</ele>
<time>2011-04-30T16:58:22Z</time>
</trkpt>
<trkpt lat="45.50889" lon="13.5838">
<ele>47</ele>
<time>2011-04-30T16:58:25Z</time>
</trkpt>
<trkpt lat="45.50888" lon="13.58386">
<ele>47</ele>
<time>2011-04-30T16:58:28Z</time>
</trkpt>
<trkpt lat="45.50887" lon="13.58393">
<ele>47</ele>
<time>2011-04-30T16:58:31Z</time>
</trkpt>
<trkpt lat="45.50886" lon="13.584">
<ele>47</ele>
<time>2011-04-30T16:58:34Z</time>
</trkpt>
<trkpt lat="45.50884" lon="13.58407">
<ele>47</ele>
<time>2011-04-30T16:58:37Z</time>
</trkpt>
<trkpt lat="45.50881" lon="13.58413">
<ele>47</ele>
<time>2011-04-30T16:58:40Z</time>
</trkpt>
<trkpt lat="45.50879" lon="13.5842">
<ele>48</ele>
<time>2011-04-30T16:58:43Z</time>
</trkpt>
<trkpt lat="45.50876" lon="13.58427">
<ele>48</ele>
<time>2011-04-30T16:58:46Z</time>
</trkpt>
<trkpt lat="45.50874" lon="13.58433">
<ele>48</ele>
<time>2011-04-30T16:58:49Z</time>
</trkpt>
<trkpt lat="45.50871" lon="13.5844">
<ele>48</ele>
<time>2011-04-30T16:58:52Z</time>
</trkpt>
<trkpt lat="45.50868" lon="13.58448">
<ele>48</ele>
<time>2011-04-30T16:58:55Z</time>
</trkpt>
<trkpt lat="45.50866" lon="13.58456">
<ele>48</ele>
<time>2011-04-30T16:58:58Z</time>
</trkpt>
<trkpt lat="45.50863" lon="13.58464">
<ele>48</ele>
<time>2011-04-30T16:59:01Z</time>
</trkpt>
<trkpt lat="45.50862" lon="13.58473">
<ele>48</ele>
<time>2011-04-30T16:59:04Z</time>
</trkpt>
<trkpt lat="45.50863" lon="13.58482">
<ele>48</ele>
<time>2011-04-30T16:59:07Z</time>
</trkpt>
<trkpt lat="45.50866" lon="13.5849">
<ele>48</ele>
<time>2011-04-30T16:59:10Z</time>
</trkpt>
<trkpt lat="45.50871" lon="13.58494">
<ele>48</ele>
<time>2011-04-30T16:59:13Z</time>
</trkpt>
<trkpt lat="45.50876" lon="13.58494">
<ele>48</ele>
<time>2011-04-30T16:59:16Z</time>
</trkpt>
<trkpt lat="45.50881" lon="13.58492">
<ele>48</ele>
<time>2011-04-30T16:59:19Z</time>
</trkpt>
<trkpt lat="45.50886" lon="13.58489">
<ele>48</ele>
<time>2011-04-30T16:59:22Z</time>
</trkpt>
<trkpt lat="45.50889" lon="13.58484">
<ele>48</ele>
<time>2011-04-30T16:59:25Z</time>
</trkpt>
<trkpt lat="45.50891" lon="13.58478">
<ele>48</ele>
<time>2011-04-30T16:59:29Z</time>
</trkpt>
<trkpt lat="45.50892" lon="13.58471">
<ele>48</ele>
<time>2011-04-30T16:59:33Z</time>
</trkpt>
<trkpt lat="45.50894" lon="13.58465">
<ele>49</ele>
<time>2011-04-30T16:59:37Z</time>
</trkpt>
<trkpt lat="45.50896" lon="13.58458">
<ele>49</ele>
<time>2011-04-30T16:59:42Z</time>
</trkpt>
<trkpt lat="45.50898" lon="13.58451">
<ele>49</ele>
<time>2011-04-30T16:59:47Z</time>
</trkpt>
<trkpt lat="45.509" lon="13.58445">
<ele>49</ele>
<time>2011-04-30T16:59:53Z</time>
</trkpt>
<trkpt lat="45.50901" lon="13.58438">
<ele>49</ele>
<time>2011-04-30T16:59:59Z</time>
</trkpt>
<trkpt lat="45.50903" lon="13.58432">
<ele>49</ele>
<time>2011-04-30T17:00:05Z</time>
</trkpt>
<trkpt lat="45.50905" lon="13.58424">
<ele>49</ele>
<time>2011-04-30T17:00:12Z</time>
</trkpt>
<trkpt lat="45.50906" lon="13.58418">
<ele>48</ele>
<time>2011-04-30T17:00:19Z</time>
</trkpt>
<trkpt lat="45.50907" lon="13.58411">
<ele>48</ele>
<time>2011-04-30T17:00:27Z</time>
</trkpt>
<trkpt lat="45.50909" lon="13.58405">
<ele>48</ele>
<time>2011-04-30T17:00:32Z</time>
</trkpt>
<trkpt lat="45.50911" lon="13.58398">
<ele>48</ele>
<time>2011-04-30T17:00:35Z</time>
</trkpt>
<trkpt lat="45.50913" lon="13.58392">
<ele>48</ele>
<time>2011-04-30T17:00:37Z</time>
</trkpt>
<trkpt lat="45.50915" lon="13.58385">
<ele>48</ele>
<time>2011-04-30T17:00:39Z</time>
</trkpt>
<trkpt lat="45.50919" lon="13.58378">
<ele>48</ele>
<time>2011-04-30T17:00:42Z</time>
</trkpt>
<trkpt lat="45.50924" lon="13.58374">
<ele>48</ele>
<time>2011-04-30T17:00:46Z</time>
</trkpt>
<trkpt lat="45.50928" lon="13.58374">
<ele>48</ele>
<time>2011-04-30T17:00:50Z</time>
</trkpt>
<trkpt lat="45.50932" lon="13.58378">
<ele>48</ele>
<time>2011-04-30T17:00:55Z</time>
</trkpt>
<trkpt lat="45.50934" lon="13.58384">
<ele>48</ele>
<time>2011-04-30T17:00:59Z</time>
</trkpt>
<trkpt lat="45.50933" lon="13.58391">
<ele>48</ele>
<time>2011-04-30T17:01:03Z</time>
</trkpt>
<trkpt lat="45.5093" lon="13.58396">
<ele>48</ele>
<time>2011-04-30T17:01:06Z</time>
</trkpt>
<trkpt lat="45.50927" lon="13.58403">
<ele>49</ele>
<time>2011-04-30T17:01:10Z</time>
</trkpt>
<trkpt lat="45.50924" lon="13.58409">
<ele>49</ele>
<time>2011-04-30T17:01:13Z</time>
</trkpt>
<trkpt lat="45.50921" lon="13.58414">
<ele>49</ele>
<time>2011-04-30T17:01:16Z</time>
</trkpt>
<trkpt lat="45.50918" lon="13.5842">
<ele>49</ele>
<time>2011-04-30T17:01:19Z</time>
</trkpt>
<trkpt lat="45.50915" lon="13.58427">
<ele>49</ele>
<time>2011-04-30T17:01:22Z</time>
</trkpt>
<trkpt lat="45.50913" lon="13.58433">
<ele>49</ele>
<time>2011-04-30T17:01:25Z</time>
</trkpt>
<trkpt lat="45.5091" lon="13.5844">
<ele>49</ele>
<time>2011-04-30T17:01:28Z</time>
</trkpt>
<trkpt lat="45.50907" lon="13.58447">
<ele>49</ele>
<time>2011-04-30T17:01:31Z</time>
</trkpt>
<trkpt lat="45.50904" lon="13.58453">
<ele>49</ele>
<time>2011-04-30T17:01:34Z</time>
</trkpt>
<trkpt lat="45.50902" lon="13.5846">
<ele>49</ele>
<time>2011-04-30T17:01:37Z</time>
</trkpt>
<trkpt lat="45.50899" lon="13.58466">
<ele>49</ele>
<time>2011-04-30T17:01:40Z</time>
</trkpt>
<trkpt lat="45.50896" lon="13.58473">
<ele>49</ele>
<time>2011-04-30T17:01:43Z</time>
</trkpt>
<trkpt lat="45.50893" lon="13.58479">
<ele>49</ele>
<time>2011-04-30T17:01:46Z</time>
</trkpt>
<trkpt lat="45.5089" lon="13.58486">
<ele>49</ele>
<time>2011-04-30T17:01:49Z</time>
</trkpt>
<trkpt lat="45.50887" lon="13.58492">
<ele>49</ele>
<time>2011-04-30T17:01:52Z</time>
</trkpt>
<trkpt lat="45.50883" lon="13.58498">
<ele>49</ele>
<time>2011-04-30T17:01:55Z</time>
</trkpt>
<trkpt lat="45.50878" lon="13.585">
<ele>49</ele>
<time>2011-04-30T17:01:59Z</time>
</trkpt>
<trkpt lat="45.50873" lon="13.58497">
<ele>49</ele>
<time>2011-04-30T17:02:03Z</time>
</trkpt>
<trkpt lat="45.50871" lon="13.5849">
<ele>49</ele>
<time>2011-04-30T17:02:07Z</time>
</trkpt>
<trkpt lat="45.50871" lon="13.58482">
<ele>48</ele>
<time>2011-04-30T17:02:11Z</time>
</trkpt>
<trkpt lat="45.50872" lon="13.58475">
<ele>48</ele>
<time>2011-04-30T17:02:16Z</time>
</trkpt>
<trkpt lat="45.50874" lon="13.58469">
<ele>48</ele>
<time>2011-04-30T17:02:20Z</time>
</trkpt>
<trkpt lat="45.50877" lon="13.58462">
<ele>48</ele>
<time>2011-04-30T17:02:25Z</time>
</trkpt>
<trkpt lat="45.50879" lon="13.58456">
<ele>48</ele>
<time>2011-04-30T17:02:30Z</time>
</trkpt>
<trkpt lat="45.50882" lon="13.58451">
<ele>48</ele>
<time>2011-04-30T17:02:35Z</time>
</trkpt>
<trkpt lat="45.50886" lon="13.58446">
<ele>48</ele>
<time>2011-04-30T17:02:40Z</time>
</trkpt>
<trkpt lat="45.5089" lon="13.58441">
<ele>48</ele>
<time>2011-04-30T17:02:45Z</time>
</trkpt>
<trkpt lat="45.50892" lon="13.58435">
<ele>48</ele>
<time>2011-04-30T17:02:50Z</time>
</trkpt>
<trkpt lat="45.50895" lon="13.5843">
<ele>48</ele>
<time>2011-04-30T17:02:56Z</time>
</trkpt>
<trkpt lat="45.50897" lon="13.58424">
<ele>48</ele>
<time>2011-04-30T17:03:04Z</time>
</trkpt>
<trkpt lat="45.50901" lon="13.5842">
<ele>48</ele>
<time>2011-04-30T17:03:11Z</time>
</trkpt>
<trkpt lat="45.50904" lon="13.58415">
<ele>48</ele>
<time>2011-04-30T17:03:18Z</time>
</trkpt>
<trkpt lat="45.50906" lon="13.58409">
<ele>48</ele>
<time>2011-04-30T17:03:30Z</time>
</trkpt>
<trkpt lat="45.50903" lon="13.58405">
<ele>48</ele>
<time>2011-04-30T17:04:01Z</time>
</trkpt>
<trkpt lat="45.50905" lon="13.58397">
<ele>48</ele>
<time>2011-04-30T17:04:08Z</time>
</trkpt>
<trkpt lat="45.50907" lon="13.5839">
<ele>49</ele>
<time>2011-04-30T17:04:11Z</time>
</trkpt>
<trkpt lat="45.50909" lon="13.58384">
<ele>49</ele>
<time>2011-04-30T17:04:14Z</time>
</trkpt>
<trkpt lat="45.50912" lon="13.58378">
<ele>49</ele>
<time>2011-04-30T17:04:18Z</time>
</trkpt>
<trkpt lat="45.50917" lon="13.58374">
<ele>49</ele>
<time>2011-04-30T17:04:23Z</time>
</trkpt>
<trkpt lat="45.50922" lon="13.58375">
<ele>49</ele>
<time>2011-04-30T17:04:30Z</time>
</trkpt>
<trkpt lat="45.50924" lon="13.5838">
<ele>49</ele>
<time>2011-04-30T17:04:37Z</time>
</trkpt>
<trkpt lat="45.50924" lon="13.58388">
<ele>49</ele>
<time>2011-04-30T17:04:44Z</time>
</trkpt>
<trkpt lat="45.50923" lon="13.58394">
<ele>49</ele>
<time>2011-04-30T17:04:50Z</time>
</trkpt>
<trkpt lat="45.50921" lon="13.584">
<ele>49</ele>
<time>2011-04-30T17:04:54Z</time>
</trkpt>
<trkpt lat="45.50919" lon="13.58406">
<ele>49</ele>
<time>2011-04-30T17:04:57Z</time>
</trkpt>
<trkpt lat="45.50916" lon="13.58414">
<ele>49</ele>
<time>2011-04-30T17:05:00Z</time>
</trkpt>
<trkpt lat="45.50913" lon="13.58421">
<ele>49</ele>
<time>2011-04-30T17:05:03Z</time>
</trkpt>
<trkpt lat="45.50911" lon="13.58427">
<ele>49</ele>
<time>2011-04-30T17:05:05Z</time>
</trkpt>
<trkpt lat="45.50908" lon="13.58433">
<ele>49</ele>
<time>2011-04-30T17:05:07Z</time>
</trkpt>
<trkpt lat="45.50906" lon="13.58439">
<ele>49</ele>
<time>2011-04-30T17:05:09Z</time>
</trkpt>
<trkpt lat="45.50904" lon="13.58445">
<ele>49</ele>
<time>2011-04-30T17:05:11Z</time>
</trkpt>
<trkpt lat="45.50901" lon="13.58451">
<ele>49</ele>
<time>2011-04-30T17:05:13Z</time>
</trkpt>
<trkpt lat="45.50899" lon="13.58458">
<ele>49</ele>
<time>2011-04-30T17:05:15Z</time>
</trkpt>
<trkpt lat="45.50897" lon="13.58464">
<ele>49</ele>
<time>2011-04-30T17:05:17Z</time>
</trkpt>
<trkpt lat="45.50894" lon="13.58471">
<ele>49</ele>
<time>2011-04-30T17:05:19Z</time>
</trkpt>
<trkpt lat="45.50892" lon="13.58477">
<ele>49</ele>
<time>2011-04-30T17:05:21Z</time>
</trkpt>
<trkpt lat="45.50889" lon="13.58484">
<ele>49</ele>
<time>2011-04-30T17:05:24Z</time>
</trkpt>
<trkpt lat="45.50884" lon="13.58488">
<ele>50</ele>
<time>2011-04-30T17:05:28Z</time>
</trkpt>
<trkpt lat="45.50878" lon="13.58487">
<ele>50</ele>
<time>2011-04-30T17:05:32Z</time>
</trkpt>
<trkpt lat="45.50874" lon="13.58483">
<ele>50</ele>
<time>2011-04-30T17:05:36Z</time>
</trkpt>
<trkpt lat="45.50873" lon="13.58477">
<ele>50</ele>
<time>2011-04-30T17:05:40Z</time>
</trkpt>
<trkpt lat="45.50873" lon="13.5847">
<ele>50</ele>
<time>2011-04-30T17:05:44Z</time>
</trkpt>
<trkpt lat="45.50875" lon="13.58464">
<ele>50</ele>
<time>2011-04-30T17:05:48Z</time>
</trkpt>
<trkpt lat="45.50879" lon="13.5846">
<ele>50</ele>
<time>2011-04-30T17:05:53Z</time>
</trkpt>
<trkpt lat="45.50883" lon="13.58456">
<ele>50</ele>
<time>2011-04-30T17:05:58Z</time>
</trkpt>
<trkpt lat="45.50886" lon="13.58451">
<ele>50</ele>
<time>2011-04-30T17:06:03Z</time>
</trkpt>
<trkpt lat="45.50889" lon="13.58446">
<ele>50</ele>
<time>2011-04-30T17:06:09Z</time>
</trkpt>
<trkpt lat="45.50892" lon="13.58441">
<ele>49</ele>
<time>2011-04-30T17:06:16Z</time>
</trkpt>
<trkpt lat="45.50894" lon="13.58434">
<ele>49</ele>
<time>2011-04-30T17:06:24Z</time>
</trkpt>
<trkpt lat="45.50896" lon="13.58428">
<ele>49</ele>
<time>2011-04-30T17:06:47Z</time>
</trkpt>
<trkpt lat="45.509" lon="13.58424">
<ele>50</ele>
<time>2011-04-30T17:06:59Z</time>
</trkpt>
<trkpt lat="45.50902" lon="13.58418">
<ele>50</ele>
<time>2011-04-30T17:07:17Z</time>
</trkpt>
<trkpt lat="45.50904" lon="13.58413">
<ele>50</ele>
<time>2011-04-30T17:07:20Z</time>
</trkpt>
<trkpt lat="45.50907" lon="13.58406">
<ele>50</ele>
<time>2011-04-30T17:07:23Z</time>
</trkpt>
<trkpt lat="45.5091" lon="13.58398">
<ele>50</ele>
<time>2011-04-30T17:07:26Z</time>
</trkpt>
<trkpt lat="45.50913" lon="13.58391">
<ele>50</ele>
<time>2011-04-30T17:07:29Z</time>
</trkpt>
<trkpt lat="45.50915" lon="13.58386">
<ele>50</ele>
<time>2011-04-30T17:07:32Z</time>
</trkpt>
<trkpt lat="45.5092" lon="13.58382">
<ele>50</ele>
<time>2011-04-30T17:07:36Z</time>
</trkpt>
<trkpt lat="45.50925" lon="13.58383">
<ele>50</ele>
<time>2011-04-30T17:07:41Z</time>
</trkpt>
<trkpt lat="45.50928" lon="13.58388">
<ele>50</ele>
<time>2011-04-30T17:07:46Z</time>
</trkpt>
<trkpt lat="45.50929" lon="13.58394">
<ele>50</ele>
<time>2011-04-30T17:07:50Z</time>
</trkpt>
<trkpt lat="45.50927" lon="13.584">
<ele>51</ele>
<time>2011-04-30T17:07:53Z</time>
</trkpt>
<trkpt lat="45.50924" lon="13.58408">
<ele>51</ele>
<time>2011-04-30T17:07:56Z</time>
</trkpt>
<trkpt lat="45.50922" lon="13.58413">
<ele>51</ele>
<time>2011-04-30T17:07:58Z</time>
</trkpt>
<trkpt lat="45.50919" lon="13.58421">
<ele>51</ele>
<time>2011-04-30T17:08:01Z</time>
</trkpt>
<trkpt lat="45.50916" lon="13.58428">
<ele>51</ele>
<time>2011-04-30T17:08:04Z</time>
</trkpt>
<trkpt lat="45.50914" lon="13.58435">
<ele>51</ele>
<time>2011-04-30T17:08:07Z</time>
</trkpt>
<trkpt lat="45.50911" lon="13.58442">
<ele>51</ele>
<time>2011-04-30T17:08:10Z</time>
</trkpt>
<trkpt lat="45.50909" lon="13.58449">
<ele>51</ele>
<time>2011-04-30T17:08:13Z</time>
</trkpt>
<trkpt lat="45.50906" lon="13.58456">
<ele>51</ele>
<time>2011-04-30T17:08:16Z</time>
</trkpt>
<trkpt lat="45.50904" lon="13.58464">
<ele>52</ele>
<time>2011-04-30T17:08:19Z</time>
</trkpt>
<trkpt lat="45.50902" lon="13.58472">
<ele>52</ele>
<time>2011-04-30T17:08:22Z</time>
</trkpt>
<trkpt lat="45.509" lon="13.58479">
<ele>52</ele>
<time>2011-04-30T17:08:25Z</time>
</trkpt>
<trkpt lat="45.50898" lon="13.58487">
<ele>52</ele>
<time>2011-04-30T17:08:28Z</time>
</trkpt>
<trkpt lat="45.50895" lon="13.58494">
<ele>52</ele>
<time>2011-04-30T17:08:31Z</time>
</trkpt>
<trkpt lat="45.50892" lon="13.585">
<ele>52</ele>
<time>2011-04-30T17:08:34Z</time>
</trkpt>
<trkpt lat="45.50889" lon="13.58505">
<ele>52</ele>
<time>2011-04-30T17:08:37Z</time>
</trkpt>
<trkpt lat="45.50884" lon="13.58506">
<ele>52</ele>
<time>2011-04-30T17:08:41Z</time>
</trkpt>
<trkpt lat="45.5088" lon="13.58503">
<ele>52</ele>
<time>2011-04-30T17:08:44Z</time>
</trkpt>
<trkpt lat="45.50877" lon="13.58496">
<ele>52</ele>
<time>2011-04-30T17:08:48Z</time>
</trkpt>
<trkpt lat="45.50877" lon="13.58489">
<ele>52</ele>
<time>2011-04-30T17:08:52Z</time>
</trkpt>
<trkpt lat="45.50878" lon="13.58482">
<ele>52</ele>
<time>2011-04-30T17:08:56Z</time>
</trkpt>
<trkpt lat="45.50879" lon="13.58475">
<ele>52</ele>
<time>2011-04-30T17:09:00Z</time>
</trkpt>
<trkpt lat="45.50881" lon="13.58469">
<ele>52</ele>
<time>2011-04-30T17:09:03Z</time>
</trkpt>
<trkpt lat="45.50884" lon="13.58461">
<ele>52</ele>
<time>2011-04-30T17:09:07Z</time>
</trkpt>
<trkpt lat="45.50886" lon="13.58454">
<ele>52</ele>
<time>2011-04-30T17:09:11Z</time>
</trkpt>
<trkpt lat="45.50888" lon="13.58448">
<ele>52</ele>
<time>2011-04-30T17:09:15Z</time>
</trkpt>
<trkpt lat="45.50891" lon="13.58442">
<ele>52</ele>
<time>2011-04-30T17:09:19Z</time>
</trkpt>
<trkpt lat="45.50893" lon="13.58436">
<ele>52</ele>
<time>2011-04-30T17:09:23Z</time>
</trkpt>
<trkpt lat="45.50896" lon="13.58431">
<ele>52</ele>
<time>2011-04-30T17:09:27Z</time>
</trkpt>
<trkpt lat="45.50898" lon="13.58424">
<ele>52</ele>
<time>2011-04-30T17:09:32Z</time>
</trkpt>
<trkpt lat="45.50901" lon="13.58418">
<ele>52</ele>
<time>2011-04-30T17:09:38Z</time>
</trkpt>
<trkpt lat="45.50903" lon="13.58411">
<ele>52</ele>
<time>2011-04-30T17:09:45Z</time>
</trkpt>
<trkpt lat="45.50905" lon="13.58405">
<ele>52</ele>
<time>2011-04-30T17:09:53Z</time>
</trkpt>
<trkpt lat="45.50907" lon="13.584">
<ele>52</ele>
<time>2011-04-30T17:10:02Z</time>
</trkpt>
<trkpt lat="45.5091" lon="13.58393">
<ele>52</ele>
<time>2011-04-30T17:10:11Z</time>
</trkpt>
<trkpt lat="45.50912" lon="13.58388">
<ele>52</ele>
<time>2011-04-30T17:10:17Z</time>
</trkpt>
<trkpt lat="45.50914" lon="13.58382">
<ele>52</ele>
<time>2011-04-30T17:10:20Z</time>
</trkpt>
<trkpt lat="45.50916" lon="13.58375">
<ele>52</ele>
<time>2011-04-30T17:10:23Z</time>
</trkpt>
<trkpt lat="45.50918" lon="13.58368">
<ele>52</ele>
<time>2011-04-30T17:10:27Z</time>
</trkpt>
<trkpt lat="45.50922" lon="13.58363">
<ele>52</ele>
<time>2011-04-30T17:10:32Z</time>
</trkpt>
<trkpt lat="45.50927" lon="13.58362">
<ele>52</ele>
<time>2011-04-30T17:10:37Z</time>
</trkpt>
<trkpt lat="45.50931" lon="13.58365">
<ele>52</ele>
<time>2011-04-30T17:10:43Z</time>
</trkpt>
<trkpt lat="45.50933" lon="13.58372">
<ele>52</ele>
<time>2011-04-30T17:10:49Z</time>
</trkpt>
<trkpt lat="45.50933" lon="13.58379">
<ele>52</ele>
<time>2011-04-30T17:10:55Z</time>
</trkpt>
<trkpt lat="45.50932" lon="13.58385">
<ele>52</ele>
<time>2011-04-30T17:11:00Z</time>
</trkpt>
<trkpt lat="45.50931" lon="13.58394">
<ele>52</ele>
<time>2011-04-30T17:11:04Z</time>
</trkpt>
<trkpt lat="45.50928" lon="13.58402">
<ele>52</ele>
<time>2011-04-30T17:11:07Z</time>
</trkpt>
<trkpt lat="45.50925" lon="13.58407">
<ele>52</ele>
<time>2011-04-30T17:11:09Z</time>
</trkpt>
<trkpt lat="45.50922" lon="13.58412">
<ele>52</ele>
<time>2011-04-30T17:11:11Z</time>
</trkpt>
<trkpt lat="45.50919" lon="13.58417">
<ele>52</ele>
<time>2011-04-30T17:11:13Z</time>
</trkpt>
<trkpt lat="45.50914" lon="13.58422">
<ele>52</ele>
<time>2011-04-30T17:11:16Z</time>
</trkpt>
<trkpt lat="45.50908" lon="13.58427">
<ele>52</ele>
<time>2011-04-30T17:11:19Z</time>
</trkpt>
<trkpt lat="45.50904" lon="13.5843">
<ele>52</ele>
<time>2011-04-30T17:11:21Z</time>
</trkpt>
<trkpt lat="45.50899" lon="13.58433">
<ele>52</ele>
<time>2011-04-30T17:11:23Z</time>
</trkpt>
<trkpt lat="45.50893" lon="13.58437">
<ele>52</ele>
<time>2011-04-30T17:11:26Z</time>
</trkpt>
<trkpt lat="45.5089" lon="13.58441">
<ele>52</ele>
<time>2011-04-30T17:11:28Z</time>
</trkpt>
<trkpt lat="45.50886" lon="13.58449">
<ele>52</ele>
<time>2011-04-30T17:11:31Z</time>
</trkpt>
<trkpt lat="45.50882" lon="13.58456">
<ele>52</ele>
<time>2011-04-30T17:11:34Z</time>
</trkpt>
<trkpt lat="45.5088" lon="13.58465">
<ele>52</ele>
<time>2011-04-30T17:11:37Z</time>
</trkpt>
<trkpt lat="45.50878" lon="13.58472">
<ele>52</ele>
<time>2011-04-30T17:11:40Z</time>
</trkpt>
<trkpt lat="45.50877" lon="13.5848">
<ele>51</ele>
<time>2011-04-30T17:11:43Z</time>
</trkpt>
<trkpt lat="45.50876" lon="13.58488">
<ele>51</ele>
<time>2011-04-30T17:11:46Z</time>
</trkpt>
<trkpt lat="45.50876" lon="13.58497">
<ele>51</ele>
<time>2011-04-30T17:11:49Z</time>
</trkpt>
<trkpt lat="45.50876" lon="13.58506">
<ele>51</ele>
<time>2011-04-30T17:11:52Z</time>
</trkpt>
<trkpt lat="45.50874" lon="13.58515">
<ele>51</ele>
<time>2011-04-30T17:11:55Z</time>
</trkpt>
<trkpt lat="45.50873" lon="13.58524">
<ele>51</ele>
<time>2011-04-30T17:11:58Z</time>
</trkpt>
<trkpt lat="45.5087" lon="13.58532">
<ele>51</ele>
<time>2011-04-30T17:12:01Z</time>
</trkpt>
<trkpt lat="45.50867" lon="13.58538">
<ele>50</ele>
<time>2011-04-30T17:12:04Z</time>
</trkpt>
<trkpt lat="45.50863" lon="13.58541">
<ele>50</ele>
<time>2011-04-30T17:12:07Z</time>
</trkpt>
<trkpt lat="45.50858" lon="13.58539">
<ele>50</ele>
<time>2011-04-30T17:12:11Z</time>
</trkpt>
<trkpt lat="45.50854" lon="13.58534">
<ele>50</ele>
<time>2011-04-30T17:12:15Z</time>
</trkpt>
<trkpt lat="45.50854" lon="13.58526">
<ele>50</ele>
<time>2011-04-30T17:12:19Z</time>
</trkpt>
<trkpt lat="45.50856" lon="13.5852">
<ele>50</ele>
<time>2011-04-30T17:12:22Z</time>
</trkpt>
<trkpt lat="45.50859" lon="13.58514">
<ele>50</ele>
<time>2011-04-30T17:12:25Z</time>
</trkpt>
<trkpt lat="45.50862" lon="13.58509">
<ele>50</ele>
<time>2011-04-30T17:12:28Z</time>
</trkpt>
<trkpt lat="45.50864" lon="13.58502">
<ele>50</ele>
<time>2011-04-30T17:12:32Z</time>
</trkpt>
<trkpt lat="45.50866" lon="13.58494">
<ele>50</ele>
<time>2011-04-30T17:12:36Z</time>
</trkpt>
<trkpt lat="45.50867" lon="13.58487">
<ele>49</ele>
<time>2011-04-30T17:12:40Z</time>
</trkpt>
<trkpt lat="45.50869" lon="13.5848">
<ele>49</ele>
<time>2011-04-30T17:12:44Z</time>
</trkpt>
<trkpt lat="45.50871" lon="13.58474">
<ele>49</ele>
<time>2011-04-30T17:12:48Z</time>
</trkpt>
<trkpt lat="45.50874" lon="13.58467">
<ele>49</ele>
<time>2011-04-30T17:12:52Z</time>
</trkpt>
<trkpt lat="45.50876" lon="13.58461">
<ele>49</ele>
<time>2011-04-30T17:12:56Z</time>
</trkpt>
<trkpt lat="45.5088" lon="13.58456">
<ele>49</ele>
<time>2011-04-30T17:13:00Z</time>
</trkpt>
<trkpt lat="45.50882" lon="13.58449">
<ele>49</ele>
<time>2011-04-30T17:13:04Z</time>
</trkpt>
<trkpt lat="45.50885" lon="13.58443">
<ele>49</ele>
<time>2011-04-30T17:13:08Z</time>
</trkpt>
<trkpt lat="45.50888" lon="13.58437">
<ele>49</ele>
<time>2011-04-30T17:13:12Z</time>
</trkpt>
<trkpt lat="45.50891" lon="13.58431">
<ele>49</ele>
<time>2011-04-30T17:13:16Z</time>
</trkpt>
<trkpt lat="45.50893" lon="13.58425">
<ele>49</ele>
<time>2011-04-30T17:13:20Z</time>
</trkpt>
<trkpt lat="45.50896" lon="13.58419">
<ele>49</ele>
<time>2011-04-30T17:13:25Z</time>
</trkpt>
<trkpt lat="45.50899" lon="13.58413">
<ele>49</ele>
<time>2011-04-30T17:13:30Z</time>
</trkpt>
<trkpt lat="45.50902" lon="13.58408">
<ele>49</ele>
<time>2011-04-30T17:13:35Z</time>
</trkpt>
<trkpt lat="45.50905" lon="13.58402">
<ele>49</ele>
<time>2011-04-30T17:13:41Z</time>
</trkpt>
<trkpt lat="45.50908" lon="13.58397">
<ele>49</ele>
<time>2011-04-30T17:13:47Z</time>
</trkpt>
<trkpt lat="45.50909" lon="13.5839">
<ele>49</ele>
<time>2011-04-30T17:13:52Z</time>
</trkpt>
<trkpt lat="45.5091" lon="13.58384">
<ele>49</ele>
<time>2011-04-30T17:13:57Z</time>
</trkpt>
<trkpt lat="45.5091" lon="13.58376">
<ele>49</ele>
<time>2011-04-30T17:14:01Z</time>
</trkpt>
<trkpt lat="45.50909" lon="13.58369">
<ele>49</ele>
<time>2011-04-30T17:14:04Z</time>
</trkpt>
<trkpt lat="45.50909" lon="13.58362">
<ele>49</ele>
<time>2011-04-30T17:14:07Z</time>
</trkpt>
<trkpt lat="45.50908" lon="13.58354">
<ele>49</ele>
<time>2011-04-30T17:14:10Z</time>
</trkpt>
<trkpt lat="45.50906" lon="13.58346">
<ele>49</ele>
<time>2011-04-30T17:14:13Z</time>
</trkpt>
<trkpt lat="45.50904" lon="13.5834">
<ele>49</ele>
<time>2011-04-30T17:14:16Z</time>
</trkpt>
<trkpt lat="45.50898" lon="13.58337">
<ele>49</ele>
<time>2011-04-30T17:14:20Z</time>
</trkpt>
<trkpt lat="45.50893" lon="13.58338">
<ele>49</ele>
<time>2011-04-30T17:14:24Z</time>
</trkpt>
<trkpt lat="45.50888" lon="13.58342">
<ele>49</ele>
<time>2011-04-30T17:14:28Z</time>
</trkpt>
<trkpt lat="45.50885" lon="13.58349">
<ele>49</ele>
<time>2011-04-30T17:14:32Z</time>
</trkpt>
<trkpt lat="45.50883" lon="13.58355">
<ele>49</ele>
<time>2011-04-30T17:14:36Z</time>
</trkpt>
<trkpt lat="45.50881" lon="13.58361">
<ele>49</ele>
<time>2011-04-30T17:14:40Z</time>
</trkpt>
<trkpt lat="45.50879" lon="13.58368">
<ele>49</ele>
<time>2011-04-30T17:14:44Z</time>
</trkpt>
<trkpt lat="45.50876" lon="13.58374">
<ele>49</ele>
<time>2011-04-30T17:14:47Z</time>
</trkpt>
<trkpt lat="45.50874" lon="13.58382">
<ele>49</ele>
<time>2011-04-30T17:14:50Z</time>
</trkpt>
<trkpt lat="45.50871" lon="13.5839">
<ele>49</ele>
<time>2011-04-30T17:14:53Z</time>
</trkpt>
<trkpt lat="45.50868" lon="13.58396">
<ele>49</ele>
<time>2011-04-30T17:14:55Z</time>
</trkpt>
<trkpt lat="45.50866" lon="13.58402">
<ele>49</ele>
<time>2011-04-30T17:14:57Z</time>
</trkpt>
<trkpt lat="45.50863" lon="13.58408">
<ele>49</ele>
<time>2011-04-30T17:14:59Z</time>
</trkpt>
<trkpt lat="45.50861" lon="13.58414">
<ele>49</ele>
<time>2011-04-30T17:15:01Z</time>
</trkpt>
<trkpt lat="45.50858" lon="13.5842">
<ele>49</ele>
<time>2011-04-30T17:15:03Z</time>
</trkpt>
<trkpt lat="45.50856" lon="13.58426">
<ele>49</ele>
<time>2011-04-30T17:15:05Z</time>
</trkpt>
<trkpt lat="45.50854" lon="13.58433">
<ele>49</ele>
<time>2011-04-30T17:15:07Z</time>
</trkpt>
<trkpt lat="45.50852" lon="13.5844">
<ele>49</ele>
<time>2011-04-30T17:15:09Z</time>
</trkpt>
<trkpt lat="45.50851" lon="13.58447">
<ele>49</ele>
<time>2011-04-30T17:15:11Z</time>
</trkpt>
<trkpt lat="45.50851" lon="13.58454">
<ele>49</ele>
<time>2011-04-30T17:15:13Z</time>
</trkpt>
<trkpt lat="45.5085" lon="13.58461">
<ele>49</ele>
<time>2011-04-30T17:15:15Z</time>
</trkpt>
<trkpt lat="45.5085" lon="13.58468">
<ele>49</ele>
<time>2011-04-30T17:15:17Z</time>
</trkpt>
<trkpt lat="45.50849" lon="13.58475">
<ele>49</ele>
<time>2011-04-30T17:15:19Z</time>
</trkpt>
<trkpt lat="45.50848" lon="13.58482">
<ele>49</ele>
<time>2011-04-30T17:15:21Z</time>
</trkpt>
<trkpt lat="45.50845" lon="13.58488">
<ele>49</ele>
<time>2011-04-30T17:15:23Z</time>
</trkpt>
<trkpt lat="45.50842" lon="13.58494">
<ele>49</ele>
<time>2011-04-30T17:15:25Z</time>
</trkpt>
<trkpt lat="45.50839" lon="13.58499">
<ele>49</ele>
<time>2011-04-30T17:15:27Z</time>
</trkpt>
<trkpt lat="45.50836" lon="13.58505">
<ele>49</ele>
<time>2011-04-30T17:15:29Z</time>
</trkpt>
<trkpt lat="45.50833" lon="13.5851">
<ele>49</ele>
<time>2011-04-30T17:15:31Z</time>
</trkpt>
<trkpt lat="45.50829" lon="13.58516">
<ele>49</ele>
<time>2011-04-30T17:15:33Z</time>
</trkpt>
<trkpt lat="45.50826" lon="13.58522">
<ele>49</ele>
<time>2011-04-30T17:15:35Z</time>
</trkpt>
<trkpt lat="45.50824" lon="13.58529">
<ele>49</ele>
<time>2011-04-30T17:15:37Z</time>
</trkpt>
<trkpt lat="45.50823" lon="13.58537">
<ele>49</ele>
<time>2011-04-30T17:15:39Z</time>
</trkpt>
<trkpt lat="45.50824" lon="13.58543">
<ele>49</ele>
<time>2011-04-30T17:15:41Z</time>
</trkpt>
<trkpt lat="45.50827" lon="13.58549">
<ele>49</ele>
<time>2011-04-30T17:15:44Z</time>
</trkpt>
<trkpt lat="45.50832" lon="13.58549">
<ele>49</ele>
<time>2011-04-30T17:15:47Z</time>
</trkpt>
<trkpt lat="45.50837" lon="13.58546">
<ele>49</ele>
<time>2011-04-30T17:15:50Z</time>
</trkpt>
<trkpt lat="45.50842" lon="13.58541">
<ele>49</ele>
<time>2011-04-30T17:15:53Z</time>
</trkpt>
<trkpt lat="45.50846" lon="13.58534">
<ele>49</ele>
<time>2011-04-30T17:15:56Z</time>
</trkpt>
<trkpt lat="45.50848" lon="13.58527">
<ele>49</ele>
<time>2011-04-30T17:15:59Z</time>
</trkpt>
<trkpt lat="45.50849" lon="13.5852">
<ele>49</ele>
<time>2011-04-30T17:16:02Z</time>
</trkpt>
<trkpt lat="45.5085" lon="13.58513">
<ele>49</ele>
<time>2011-04-30T17:16:05Z</time>
</trkpt>
<trkpt lat="45.50851" lon="13.58506">
<ele>49</ele>
<time>2011-04-30T17:16:08Z</time>
</trkpt>
<trkpt lat="45.50852" lon="13.585">
<ele>49</ele>
<time>2011-04-30T17:16:11Z</time>
</trkpt>
<trkpt lat="45.50854" lon="13.58493">
<ele>49</ele>
<time>2011-04-30T17:16:14Z</time>
</trkpt>
<trkpt lat="45.50855" lon="13.58487">
<ele>49</ele>
<time>2011-04-30T17:16:17Z</time>
</trkpt>
<trkpt lat="45.50857" lon="13.58481">
<ele>49</ele>
<time>2011-04-30T17:16:20Z</time>
</trkpt>
<trkpt lat="45.5086" lon="13.58475">
<ele>49</ele>
<time>2011-04-30T17:16:23Z</time>
</trkpt>
<trkpt lat="45.50862" lon="13.58469">
<ele>49</ele>
<time>2011-04-30T17:16:26Z</time>
</trkpt>
<trkpt lat="45.50866" lon="13.58465">
<ele>49</ele>
<time>2011-04-30T17:16:29Z</time>
</trkpt>
<trkpt lat="45.50869" lon="13.5846">
<ele>49</ele>
<time>2011-04-30T17:16:32Z</time>
</trkpt>
<trkpt lat="45.50872" lon="13.58455">
<ele>49</ele>
<time>2011-04-30T17:16:35Z</time>
</trkpt>
<trkpt lat="45.50875" lon="13.5845">
<ele>49</ele>
<time>2011-04-30T17:16:38Z</time>
</trkpt>
<trkpt lat="45.50879" lon="13.58445">
<ele>49</ele>
<time>2011-04-30T17:16:41Z</time>
</trkpt>
<trkpt lat="45.50882" lon="13.58439">
<ele>48</ele>
<time>2011-04-30T17:16:44Z</time>
</trkpt>
<trkpt lat="45.50884" lon="13.58434">
<ele>48</ele>
<time>2011-04-30T17:16:47Z</time>
</trkpt>
<trkpt lat="45.50888" lon="13.58429">
<ele>48</ele>
<time>2011-04-30T17:16:50Z</time>
</trkpt>
<trkpt lat="45.50891" lon="13.58424">
<ele>48</ele>
<time>2011-04-30T17:16:53Z</time>
</trkpt>
<trkpt lat="45.50895" lon="13.58421">
<ele>48</ele>
<time>2011-04-30T17:16:56Z</time>
</trkpt>
<trkpt lat="45.50899" lon="13.58417">
<ele>48</ele>
<time>2011-04-30T17:17:00Z</time>
</trkpt>
<trkpt lat="45.50903" lon="13.58413">
<ele>48</ele>
<time>2011-04-30T17:17:06Z</time>
</trkpt>
<trkpt lat="45.50906" lon="13.58407">
<ele>48</ele>
<time>2011-04-30T17:17:13Z</time>
</trkpt>
<trkpt lat="45.50908" lon="13.58401">
<ele>47</ele>
<time>2011-04-30T17:17:21Z</time>
</trkpt>
<trkpt lat="45.5091" lon="13.58393">
<ele>47</ele>
<time>2011-04-30T17:17:25Z</time>
</trkpt>
<trkpt lat="45.50913" lon="13.58384">
<ele>47</ele>
<time>2011-04-30T17:17:28Z</time>
</trkpt>
<trkpt lat="45.50915" lon="13.58376">
<ele>47</ele>
<time>2011-04-30T17:17:31Z</time>
</trkpt>
<trkpt lat="45.50916" lon="13.5837">
<ele>47</ele>
<time>2011-04-30T17:17:34Z</time>
</trkpt>
<trkpt lat="45.50918" lon="13.58363">
<ele>47</ele>
<time>2011-04-30T17:17:38Z</time>
</trkpt>
<trkpt lat="45.50923" lon="13.58362">
<ele>47</ele>
<time>2011-04-30T17:17:43Z</time>
</trkpt>
<trkpt lat="45.50927" lon="13.58364">
<ele>47</ele>
<time>2011-04-30T17:17:47Z</time>
</trkpt>
<trkpt lat="45.5093" lon="13.5837">
<ele>47</ele>
<time>2011-04-30T17:17:52Z</time>
</trkpt>
<trkpt lat="45.50929" lon="13.58377">
<ele>47</ele>
<time>2011-04-30T17:17:57Z</time>
</trkpt>
<trkpt lat="45.50927" lon="13.58382">
<ele>47</ele>
<time>2011-04-30T17:18:01Z</time>
</trkpt>
<trkpt lat="45.50924" lon="13.58389">
<ele>47</ele>
<time>2011-04-30T17:18:04Z</time>
</trkpt>
<trkpt lat="45.50921" lon="13.58396">
<ele>47</ele>
<time>2011-04-30T17:18:07Z</time>
</trkpt>
<trkpt lat="45.50919" lon="13.58404">
<ele>47</ele>
<time>2011-04-30T17:18:10Z</time>
</trkpt>
<trkpt lat="45.50916" lon="13.58413">
<ele>47</ele>
<time>2011-04-30T17:18:13Z</time>
</trkpt>
<trkpt lat="45.50913" lon="13.58421">
<ele>48</ele>
<time>2011-04-30T17:18:16Z</time>
</trkpt>
<trkpt lat="45.5091" lon="13.58426">
<ele>48</ele>
<time>2011-04-30T17:18:18Z</time>
</trkpt>
<trkpt lat="45.50907" lon="13.58432">
<ele>48</ele>
<time>2011-04-30T17:18:20Z</time>
</trkpt>
<trkpt lat="45.50903" lon="13.58438">
<ele>48</ele>
<time>2011-04-30T17:18:22Z</time>
</trkpt>
<trkpt lat="45.509" lon="13.58444">
<ele>48</ele>
<time>2011-04-30T17:18:24Z</time>
</trkpt>
<trkpt lat="45.50898" lon="13.5845">
<ele>48</ele>
<time>2011-04-30T17:18:26Z</time>
</trkpt>
<trkpt lat="45.50896" lon="13.58457">
<ele>48</ele>
<time>2011-04-30T17:18:28Z</time>
</trkpt>
<trkpt lat="45.50893" lon="13.58464">
<ele>48</ele>
<time>2011-04-30T17:18:30Z</time>
</trkpt>
<trkpt lat="45.50891" lon="13.58471">
<ele>48</ele>
<time>2011-04-30T17:18:32Z</time>
</trkpt>
<trkpt lat="45.50889" lon="13.58477">
<ele>48</ele>
<time>2011-04-30T17:18:34Z</time>
</trkpt>
<trkpt lat="45.50887" lon="13.58484">
<ele>48</ele>
<time>2011-04-30T17:18:36Z</time>
</trkpt>
<trkpt lat="45.50884" lon="13.5849">
<ele>48</ele>
<time>2011-04-30T17:18:38Z</time>
</trkpt>
<trkpt lat="45.50881" lon="13.58496">
<ele>48</ele>
<time>2011-04-30T17:18:40Z</time>
</trkpt>
<trkpt lat="45.50877" lon="13.585">
<ele>48</ele>
<time>2011-04-30T17:18:43Z</time>
</trkpt>
<trkpt lat="45.50871" lon="13.58501">
<ele>48</ele>
<time>2011-04-30T17:18:46Z</time>
</trkpt>
<trkpt lat="45.50866" lon="13.58498">
<ele>48</ele>
<time>2011-04-30T17:18:49Z</time>
</trkpt>
<trkpt lat="45.50862" lon="13.58493">
<ele>48</ele>
<time>2011-04-30T17:18:52Z</time>
</trkpt>
<trkpt lat="45.50861" lon="13.58487">
<ele>48</ele>
<time>2011-04-30T17:18:55Z</time>
</trkpt>
<trkpt lat="45.50862" lon="13.58478">
<ele>48</ele>
<time>2011-04-30T17:18:59Z</time>
</trkpt>
<trkpt lat="45.50864" lon="13.58471">
<ele>48</ele>
<time>2011-04-30T17:19:03Z</time>
</trkpt>
<trkpt lat="45.50866" lon="13.58464">
<ele>48</ele>
<time>2011-04-30T17:19:07Z</time>
</trkpt>
<trkpt lat="45.50868" lon="13.58458">
<ele>48</ele>
<time>2011-04-30T17:19:11Z</time>
</trkpt>
<trkpt lat="45.50871" lon="13.58451">
<ele>48</ele>
<time>2011-04-30T17:19:15Z</time>
</trkpt>
<trkpt lat="45.50875" lon="13.58446">
<ele>48</ele>
<time>2011-04-30T17:19:19Z</time>
</trkpt>
<trkpt lat="45.50879" lon="13.58441">
<ele>48</ele>
<time>2011-04-30T17:19:23Z</time>
</trkpt>
<trkpt lat="45.50882" lon="13.58435">
<ele>48</ele>
<time>2011-04-30T17:19:27Z</time>
</trkpt>
<trkpt lat="45.50886" lon="13.5843">
<ele>48</ele>
<time>2011-04-30T17:19:31Z</time>
</trkpt>
<trkpt lat="45.5089" lon="13.58425">
<ele>48</ele>
<time>2011-04-30T17:19:36Z</time>
</trkpt>
<trkpt lat="45.50894" lon="13.5842">
<ele>48</ele>
<time>2011-04-30T17:19:41Z</time>
</trkpt>
<trkpt lat="45.50898" lon="13.58416">
<ele>48</ele>
<time>2011-04-30T17:19:46Z</time>
</trkpt>
<trkpt lat="45.50901" lon="13.58411">
<ele>48</ele>
<time>2011-04-30T17:19:52Z</time>
</trkpt>
<trkpt lat="45.50906" lon="13.58407">
<ele>48</ele>
<time>2011-04-30T17:19:58Z</time>
</trkpt>
<trkpt lat="45.5091" lon="13.58403">
<ele>48</ele>
<time>2011-04-30T17:20:04Z</time>
</trkpt>
<trkpt lat="45.50913" lon="13.58398">
<ele>48</ele>
<time>2011-04-30T17:20:10Z</time>
</trkpt>
<trkpt lat="45.50916" lon="13.58393">
<ele>48</ele>
<time>2011-04-30T17:20:15Z</time>
</trkpt>
<trkpt lat="45.50919" lon="13.58387">
<ele>48</ele>
<time>2011-04-30T17:20:20Z</time>
</trkpt>
<trkpt lat="45.50922" lon="13.58382">
<ele>48</ele>
<time>2011-04-30T17:20:25Z</time>
</trkpt>
<trkpt lat="45.50927" lon="13.5838">
<ele>48</ele>
<time>2011-04-30T17:20:31Z</time>
</trkpt>
<trkpt lat="45.5093" lon="13.58385">
<ele>48</ele>
<time>2011-04-30T17:20:42Z</time>
</trkpt>
<trkpt lat="45.5093" lon="13.58391">
<ele>49</ele>
<time>2011-04-30T17:20:49Z</time>
</trkpt>
<trkpt lat="45.50928" lon="13.58398">
<ele>49</ele>
<time>2011-04-30T17:20:55Z</time>
</trkpt>
<trkpt lat="45.50926" lon="13.58406">
<ele>49</ele>
<time>2011-04-30T17:20:59Z</time>
</trkpt>
<trkpt lat="45.50923" lon="13.58412">
<ele>49</ele>
<time>2011-04-30T17:21:02Z</time>
</trkpt>
<trkpt lat="45.5092" lon="13.58421">
<ele>49</ele>
<time>2011-04-30T17:21:05Z</time>
</trkpt>
<trkpt lat="45.50918" lon="13.58427">
<ele>49</ele>
<time>2011-04-30T17:21:07Z</time>
</trkpt>
<trkpt lat="45.50916" lon="13.58434">
<ele>49</ele>
<time>2011-04-30T17:21:09Z</time>
</trkpt>
<trkpt lat="45.50913" lon="13.58441">
<ele>49</ele>
<time>2011-04-30T17:21:11Z</time>
</trkpt>
<trkpt lat="45.50911" lon="13.58448">
<ele>49</ele>
<time>2011-04-30T17:21:13Z</time>
</trkpt>
<trkpt lat="45.50909" lon="13.58456">
<ele>48</ele>
<time>2011-04-30T17:21:15Z</time>
</trkpt>
<trkpt lat="45.50907" lon="13.58463">
<ele>48</ele>
<time>2011-04-30T17:21:17Z</time>
</trkpt>
<trkpt lat="45.50904" lon="13.5847">
<ele>48</ele>
<time>2011-04-30T17:21:19Z</time>
</trkpt>
<trkpt lat="45.50901" lon="13.58478">
<ele>48</ele>
<time>2011-04-30T17:21:21Z</time>
</trkpt>
<trkpt lat="45.50898" lon="13.58485">
<ele>48</ele>
<time>2011-04-30T17:21:23Z</time>
</trkpt>
<trkpt lat="45.50896" lon="13.58492">
<ele>48</ele>
<time>2011-04-30T17:21:25Z</time>
</trkpt>
<trkpt lat="45.50892" lon="13.58497">
<ele>48</ele>
<time>2011-04-30T17:21:27Z</time>
</trkpt>
<trkpt lat="45.50887" lon="13.58501">
<ele>48</ele>
<time>2011-04-30T17:21:30Z</time>
</trkpt>
<trkpt lat="45.50882" lon="13.58501">
<ele>48</ele>
<time>2011-04-30T17:21:33Z</time>
</trkpt>
<trkpt lat="45.50877" lon="13.58497">
<ele>48</ele>
<time>2011-04-30T17:21:36Z</time>
</trkpt>
<trkpt lat="45.50875" lon="13.58489">
<ele>48</ele>
<time>2011-04-30T17:21:40Z</time>
</trkpt>
<trkpt lat="45.50874" lon="13.58483">
<ele>48</ele>
<time>2011-04-30T17:21:43Z</time>
</trkpt>
<trkpt lat="45.50875" lon="13.58475">
<ele>47</ele>
<time>2011-04-30T17:21:47Z</time>
</trkpt>
<trkpt lat="45.50877" lon="13.58467">
<ele>47</ele>
<time>2011-04-30T17:21:51Z</time>
</trkpt>
<trkpt lat="45.50879" lon="13.5846">
<ele>47</ele>
<time>2011-04-30T17:21:55Z</time>
</trkpt>
<trkpt lat="45.50882" lon="13.58454">
<ele>47</ele>
<time>2011-04-30T17:21:59Z</time>
</trkpt>
<trkpt lat="45.50884" lon="13.58447">
<ele>47</ele>
<time>2011-04-30T17:22:03Z</time>
</trkpt>
<trkpt lat="45.50886" lon="13.58441">
<ele>47</ele>
<time>2011-04-30T17:22:07Z</time>
</trkpt>
<trkpt lat="45.50889" lon="13.58436">
<ele>47</ele>
<time>2011-04-30T17:22:11Z</time>
</trkpt>
<trkpt lat="45.50892" lon="13.5843">
<ele>47</ele>
<time>2011-04-30T17:22:16Z</time>
</trkpt>
<trkpt lat="45.50895" lon="13.58424">
<ele>47</ele>
<time>2011-04-30T17:22:21Z</time>
</trkpt>
<trkpt lat="45.50898" lon="13.58418">
<ele>47</ele>
<time>2011-04-30T17:22:27Z</time>
</trkpt>
<trkpt lat="45.50901" lon="13.58413">
<ele>47</ele>
<time>2011-04-30T17:22:45Z</time>
</trkpt>
<trkpt lat="45.50904" lon="13.58408">
<ele>47</ele>
<time>2011-04-30T17:22:57Z</time>
</trkpt>
<trkpt lat="45.50905" lon="13.58401">
<ele>47</ele>
<time>2011-04-30T17:23:04Z</time>
</trkpt>
<trkpt lat="45.50907" lon="13.58394">
<ele>47</ele>
<time>2011-04-30T17:23:08Z</time>
</trkpt>
<trkpt lat="45.50908" lon="13.58388">
<ele>47</ele>
<time>2011-04-30T17:23:11Z</time>
</trkpt>
<trkpt lat="45.50908" lon="13.58381">
<ele>47</ele>
<time>2011-04-30T17:23:14Z</time>
</trkpt>
<trkpt lat="45.50908" lon="13.58374">
<ele>47</ele>
<time>2011-04-30T17:23:17Z</time>
</trkpt>
<trkpt lat="45.50905" lon="13.58367">
<ele>47</ele>
<time>2011-04-30T17:23:20Z</time>
</trkpt>
<trkpt lat="45.50901" lon="13.58362">
<ele>47</ele>
<time>2011-04-30T17:23:23Z</time>
</trkpt>
<trkpt lat="45.50896" lon="13.58359">
<ele>47</ele>
<time>2011-04-30T17:23:26Z</time>
</trkpt>
<trkpt lat="45.5089" lon="13.58358">
<ele>47</ele>
<time>2011-04-30T17:23:29Z</time>
</trkpt>
<trkpt lat="45.50884" lon="13.58358">
<ele>47</ele>
<time>2011-04-30T17:23:32Z</time>
</trkpt>
<trkpt lat="45.50878" lon="13.58358">
<ele>47</ele>
<time>2011-04-30T17:23:35Z</time>
</trkpt>
<trkpt lat="45.50872" lon="13.58358">
<ele>47</ele>
<time>2011-04-30T17:23:38Z</time>
</trkpt>
<trkpt lat="45.50867" lon="13.58359">
<ele>47</ele>
<time>2011-04-30T17:23:40Z</time>
</trkpt>
<trkpt lat="45.5086" lon="13.5836">
<ele>47</ele>
<time>2011-04-30T17:23:43Z</time>
</trkpt>
<trkpt lat="45.50853" lon="13.58361">
<ele>47</ele>
<time>2011-04-30T17:23:46Z</time>
</trkpt>
<trkpt lat="45.50849" lon="13.58361">
<ele>47</ele>
<time>2011-04-30T17:23:48Z</time>
</trkpt>
<trkpt lat="45.50844" lon="13.58362">
<ele>47</ele>
<time>2011-04-30T17:23:50Z</time>
</trkpt>
<trkpt lat="45.50839" lon="13.58362">
<ele>47</ele>
<time>2011-04-30T17:23:52Z</time>
</trkpt>
<trkpt lat="45.50834" lon="13.58363">
<ele>47</ele>
<time>2011-04-30T17:23:54Z</time>
</trkpt>
<trkpt lat="45.50829" lon="13.58363">
<ele>47</ele>
<time>2011-04-30T17:23:56Z</time>
</trkpt>
<trkpt lat="45.50824" lon="13.58364">
<ele>47</ele>
<time>2011-04-30T17:23:58Z</time>
</trkpt>
<trkpt lat="45.50819" lon="13.58364">
<ele>47</ele>
<time>2011-04-30T17:24:00Z</time>
</trkpt>
<trkpt lat="45.50814" lon="13.58365">
<ele>47</ele>
<time>2011-04-30T17:24:02Z</time>
</trkpt>
<trkpt lat="45.50808" lon="13.58366">
<ele>47</ele>
<time>2011-04-30T17:24:04Z</time>
</trkpt>
<trkpt lat="45.50803" lon="13.58367">
<ele>47</ele>
<time>2011-04-30T17:24:06Z</time>
</trkpt>
<trkpt lat="45.50797" lon="13.58369">
<ele>47</ele>
<time>2011-04-30T17:24:08Z</time>
</trkpt>
<trkpt lat="45.50792" lon="13.58372">
<ele>47</ele>
<time>2011-04-30T17:24:10Z</time>
</trkpt>
<trkpt lat="45.50788" lon="13.58376">
<ele>47</ele>
<time>2011-04-30T17:24:12Z</time>
</trkpt>
<trkpt lat="45.50784" lon="13.5838">
<ele>47</ele>
<time>2011-04-30T17:24:14Z</time>
</trkpt>
<trkpt lat="45.50781" lon="13.58386">
<ele>47</ele>
<time>2011-04-30T17:24:16Z</time>
</trkpt>
<trkpt lat="45.50778" lon="13.58391">
<ele>47</ele>
<time>2011-04-30T17:24:18Z</time>
</trkpt>
<trkpt lat="45.50776" lon="13.58397">
<ele>47</ele>
<time>2011-04-30T17:24:20Z</time>
</trkpt>
<trkpt lat="45.50774" lon="13.58406">
<ele>47</ele>
<time>2011-04-30T17:24:23Z</time>
</trkpt>
<trkpt lat="45.50773" lon="13.58415">
<ele>47</ele>
<time>2011-04-30T17:24:26Z</time>
</trkpt>
<trkpt lat="45.50771" lon="13.58423">
<ele>47</ele>
<time>2011-04-30T17:24:29Z</time>
</trkpt>
<trkpt lat="45.5077" lon="13.58431">
<ele>47</ele>
<time>2011-04-30T17:24:32Z</time>
</trkpt>
<trkpt lat="45.50768" lon="13.5844">
<ele>47</ele>
<time>2011-04-30T17:24:35Z</time>
</trkpt>
<trkpt lat="45.50767" lon="13.58448">
<ele>47</ele>
<time>2011-04-30T17:24:38Z</time>
</trkpt>
<trkpt lat="45.50765" lon="13.58456">
<ele>47</ele>
<time>2011-04-30T17:24:41Z</time>
</trkpt>
<trkpt lat="45.50764" lon="13.58465">
<ele>47</ele>
<time>2011-04-30T17:24:44Z</time>
</trkpt>
<trkpt lat="45.50762" lon="13.58474">
<ele>47</ele>
<time>2011-04-30T17:24:47Z</time>
</trkpt>
<trkpt lat="45.5076" lon="13.58481">
<ele>47</ele>
<time>2011-04-30T17:24:49Z</time>
</trkpt>
<trkpt lat="45.50759" lon="13.58489">
<ele>47</ele>
<time>2011-04-30T17:24:51Z</time>
</trkpt>
<trkpt lat="45.50757" lon="13.58496">
<ele>47</ele>
<time>2011-04-30T17:24:53Z</time>
</trkpt>
<trkpt lat="45.50756" lon="13.58504">
<ele>47</ele>
<time>2011-04-30T17:24:55Z</time>
</trkpt>
<trkpt lat="45.50754" lon="13.58511">
<ele>47</ele>
<time>2011-04-30T17:24:57Z</time>
</trkpt>
<trkpt lat="45.50753" lon="13.58519">
<ele>47</ele>
<time>2011-04-30T17:24:59Z</time>
</trkpt>
<trkpt lat="45.50751" lon="13.58528">
<ele>47</ele>
<time>2011-04-30T17:25:01Z</time>
</trkpt>
<trkpt lat="45.5075" lon="13.58536">
<ele>47</ele>
<time>2011-04-30T17:25:03Z</time>
</trkpt>
<trkpt lat="45.50748" lon="13.58545">
<ele>47</ele>
<time>2011-04-30T17:25:05Z</time>
</trkpt>
<trkpt lat="45.50746" lon="13.58553">
<ele>47</ele>
<time>2011-04-30T17:25:07Z</time>
</trkpt>
<trkpt lat="45.50744" lon="13.58562">
<ele>47</ele>
<time>2011-04-30T17:25:09Z</time>
</trkpt>
<trkpt lat="45.50742" lon="13.5857">
<ele>47</ele>
<time>2011-04-30T17:25:11Z</time>
</trkpt>
<trkpt lat="45.5074" lon="13.58577">
<ele>47</ele>
<time>2011-04-30T17:25:13Z</time>
</trkpt>
<trkpt lat="45.50738" lon="13.58585">
<ele>47</ele>
<time>2011-04-30T17:25:15Z</time>
</trkpt>
<trkpt lat="45.50736" lon="13.58594">
<ele>47</ele>
<time>2011-04-30T17:25:17Z</time>
</trkpt>
<trkpt lat="45.50733" lon="13.58602">
<ele>47</ele>
<time>2011-04-30T17:25:19Z</time>
</trkpt>
<trkpt lat="45.50731" lon="13.5861">
<ele>47</ele>
<time>2011-04-30T17:25:21Z</time>
</trkpt>
<trkpt lat="45.50729" lon="13.58618">
<ele>47</ele>
<time>2011-04-30T17:25:23Z</time>
</trkpt>
<trkpt lat="45.50727" lon="13.58626">
<ele>47</ele>
<time>2011-04-30T17:25:25Z</time>
</trkpt>
<trkpt lat="45.50724" lon="13.58634">
<ele>47</ele>
<time>2011-04-30T17:25:27Z</time>
</trkpt>
<trkpt lat="45.50722" lon="13.58643">
<ele>48</ele>
<time>2011-04-30T17:25:29Z</time>
</trkpt>
<trkpt lat="45.5072" lon="13.58651">
<ele>48</ele>
<time>2011-04-30T17:25:31Z</time>
</trkpt>
<trkpt lat="45.50717" lon="13.58659">
<ele>48</ele>
<time>2011-04-30T17:25:33Z</time>
</trkpt>
<trkpt lat="45.50715" lon="13.58667">
<ele>48</ele>
<time>2011-04-30T17:25:35Z</time>
</trkpt>
<trkpt lat="45.50712" lon="13.58675">
<ele>48</ele>
<time>2011-04-30T17:25:37Z</time>
</trkpt>
<trkpt lat="45.5071" lon="13.58683">
<ele>48</ele>
<time>2011-04-30T17:25:39Z</time>
</trkpt>
<trkpt lat="45.50708" lon="13.58691">
<ele>48</ele>
<time>2011-04-30T17:25:41Z</time>
</trkpt>
<trkpt lat="45.50706" lon="13.587">
<ele>48</ele>
<time>2011-04-30T17:25:43Z</time>
</trkpt>
<trkpt lat="45.50704" lon="13.58708">
<ele>48</ele>
<time>2011-04-30T17:25:45Z</time>
</trkpt>
<trkpt lat="45.50702" lon="13.58716">
<ele>48</ele>
<time>2011-04-30T17:25:47Z</time>
</trkpt>
<trkpt lat="45.50699" lon="13.58724">
<ele>48</ele>
<time>2011-04-30T17:25:49Z</time>
</trkpt>
<trkpt lat="45.50696" lon="13.58731">
<ele>48</ele>
<time>2011-04-30T17:25:51Z</time>
</trkpt>
<trkpt lat="45.50694" lon="13.58739">
<ele>48</ele>
<time>2011-04-30T17:25:53Z</time>
</trkpt>
<trkpt lat="45.50692" lon="13.58747">
<ele>48</ele>
<time>2011-04-30T17:25:55Z</time>
</trkpt>
<trkpt lat="45.50689" lon="13.58755">
<ele>48</ele>
<time>2011-04-30T17:25:57Z</time>
</trkpt>
<trkpt lat="45.50687" lon="13.58763">
<ele>48</ele>
<time>2011-04-30T17:25:59Z</time>
</trkpt>
<trkpt lat="45.50684" lon="13.58772">
<ele>48</ele>
<time>2011-04-30T17:26:01Z</time>
</trkpt>
<trkpt lat="45.50682" lon="13.5878">
<ele>48</ele>
<time>2011-04-30T17:26:03Z</time>
</trkpt>
<trkpt lat="45.50679" lon="13.58788">
<ele>48</ele>
<time>2011-04-30T17:26:05Z</time>
</trkpt>
<trkpt lat="45.50677" lon="13.58796">
<ele>48</ele>
<time>2011-04-30T17:26:07Z</time>
</trkpt>
<trkpt lat="45.50675" lon="13.58805">
<ele>48</ele>
<time>2011-04-30T17:26:09Z</time>
</trkpt>
<trkpt lat="45.50673" lon="13.58813">
<ele>48</ele>
<time>2011-04-30T17:26:11Z</time>
</trkpt>
<trkpt lat="45.5067" lon="13.58821">
<ele>48</ele>
<time>2011-04-30T17:26:13Z</time>
</trkpt>
<trkpt lat="45.50668" lon="13.58829">
<ele>48</ele>
<time>2011-04-30T17:26:15Z</time>
</trkpt>
<trkpt lat="45.50666" lon="13.58837">
<ele>48</ele>
<time>2011-04-30T17:26:17Z</time>
</trkpt>
<trkpt lat="45.50663" lon="13.58846">
<ele>48</ele>
<time>2011-04-30T17:26:19Z</time>
</trkpt>
<trkpt lat="45.50661" lon="13.58854">
<ele>48</ele>
<time>2011-04-30T17:26:21Z</time>
</trkpt>
<trkpt lat="45.50659" lon="13.58863">
<ele>48</ele>
<time>2011-04-30T17:26:23Z</time>
</trkpt>
<trkpt lat="45.50657" lon="13.58871">
<ele>48</ele>
<time>2011-04-30T17:26:25Z</time>
</trkpt>
<trkpt lat="45.50655" lon="13.5888">
<ele>48</ele>
<time>2011-04-30T17:26:27Z</time>
</trkpt>
<trkpt lat="45.50653" lon="13.58889">
<ele>48</ele>
<time>2011-04-30T17:26:29Z</time>
</trkpt>
<trkpt lat="45.50651" lon="13.58897">
<ele>48</ele>
<time>2011-04-30T17:26:31Z</time>
</trkpt>
<trkpt lat="45.50649" lon="13.58906">
<ele>48</ele>
<time>2011-04-30T17:26:33Z</time>
</trkpt>
<trkpt lat="45.50646" lon="13.58914">
<ele>48</ele>
<time>2011-04-30T17:26:35Z</time>
</trkpt>
<trkpt lat="45.50644" lon="13.58923">
<ele>48</ele>
<time>2011-04-30T17:26:37Z</time>
</trkpt>
<trkpt lat="45.50642" lon="13.58931">
<ele>48</ele>
<time>2011-04-30T17:26:39Z</time>
</trkpt>
<trkpt lat="45.5064" lon="13.5894">
<ele>48</ele>
<time>2011-04-30T17:26:41Z</time>
</trkpt>
<trkpt lat="45.50639" lon="13.58948">
<ele>48</ele>
<time>2011-04-30T17:26:43Z</time>
</trkpt>
<trkpt lat="45.50637" lon="13.58956">
<ele>48</ele>
<time>2011-04-30T17:26:45Z</time>
</trkpt>
<trkpt lat="45.50635" lon="13.58965">
<ele>48</ele>
<time>2011-04-30T17:26:47Z</time>
</trkpt>
<trkpt lat="45.50633" lon="13.58973">
<ele>48</ele>
<time>2011-04-30T17:26:49Z</time>
</trkpt>
<trkpt lat="45.50631" lon="13.58982">
<ele>48</ele>
<time>2011-04-30T17:26:51Z</time>
</trkpt>
<trkpt lat="45.5063" lon="13.5899">
<ele>48</ele>
<time>2011-04-30T17:26:53Z</time>
</trkpt>
<trkpt lat="45.50628" lon="13.58998">
<ele>48</ele>
<time>2011-04-30T17:26:55Z</time>
</trkpt>
<trkpt lat="45.50626" lon="13.59006">
<ele>48</ele>
<time>2011-04-30T17:26:57Z</time>
</trkpt>
<trkpt lat="45.50625" lon="13.59014">
<ele>48</ele>
<time>2011-04-30T17:26:59Z</time>
</trkpt>
<trkpt lat="45.50623" lon="13.59021">
<ele>48</ele>
<time>2011-04-30T17:27:01Z</time>
</trkpt>
<trkpt lat="45.50621" lon="13.59027">
<ele>48</ele>
<time>2011-04-30T17:27:03Z</time>
</trkpt>
<trkpt lat="45.50619" lon="13.59034">
<ele>48</ele>
<time>2011-04-30T17:27:05Z</time>
</trkpt>
<trkpt lat="45.50616" lon="13.5904">
<ele>48</ele>
<time>2011-04-30T17:27:07Z</time>
</trkpt>
<trkpt lat="45.50614" lon="13.59046">
<ele>48</ele>
<time>2011-04-30T17:27:09Z</time>
</trkpt>
<trkpt lat="45.50611" lon="13.59052">
<ele>48</ele>
<time>2011-04-30T17:27:11Z</time>
</trkpt>
<trkpt lat="45.50609" lon="13.59058">
<ele>48</ele>
<time>2011-04-30T17:27:13Z</time>
</trkpt>
<trkpt lat="45.50607" lon="13.59064">
<ele>48</ele>
<time>2011-04-30T17:27:15Z</time>
</trkpt>
<trkpt lat="45.50604" lon="13.5907">
<ele>48</ele>
<time>2011-04-30T17:27:17Z</time>
</trkpt>
<trkpt lat="45.50602" lon="13.59076">
<ele>48</ele>
<time>2011-04-30T17:27:19Z</time>
</trkpt>
<trkpt lat="45.506" lon="13.59082">
<ele>48</ele>
<time>2011-04-30T17:27:21Z</time>
</trkpt>
<trkpt lat="45.50598" lon="13.59088">
<ele>48</ele>
<time>2011-04-30T17:27:23Z</time>
</trkpt>
<trkpt lat="45.50595" lon="13.59096">
<ele>48</ele>
<time>2011-04-30T17:27:26Z</time>
</trkpt>
<trkpt lat="45.50592" lon="13.59105">
<ele>49</ele>
<time>2011-04-30T17:27:29Z</time>
</trkpt>
<trkpt lat="45.5059" lon="13.59113">
<ele>49</ele>
<time>2011-04-30T17:27:32Z</time>
</trkpt>
<trkpt lat="45.50587" lon="13.59121">
<ele>49</ele>
<time>2011-04-30T17:27:35Z</time>
</trkpt>
<trkpt lat="45.50584" lon="13.59129">
<ele>49</ele>
<time>2011-04-30T17:27:38Z</time>
</trkpt>
<trkpt lat="45.50582" lon="13.59137">
<ele>49</ele>
<time>2011-04-30T17:27:41Z</time>
</trkpt>
<trkpt lat="45.5058" lon="13.59145">
<ele>49</ele>
<time>2011-04-30T17:27:44Z</time>
</trkpt>
<trkpt lat="45.50578" lon="13.59153">
<ele>49</ele>
<time>2011-04-30T17:27:47Z</time>
</trkpt>
<trkpt lat="45.50576" lon="13.59161">
<ele>49</ele>
<time>2011-04-30T17:27:50Z</time>
</trkpt>
<trkpt lat="45.50575" lon="13.59168">
<ele>49</ele>
<time>2011-04-30T17:27:53Z</time>
</trkpt>
<trkpt lat="45.50573" lon="13.59176">
<ele>49</ele>
<time>2011-04-30T17:27:56Z</time>
</trkpt>
<trkpt lat="45.50572" lon="13.59184">
<ele>49</ele>
<time>2011-04-30T17:27:59Z</time>
</trkpt>
<trkpt lat="45.5057" lon="13.59192">
<ele>49</ele>
<time>2011-04-30T17:28:02Z</time>
</trkpt>
<trkpt lat="45.50569" lon="13.59199">
<ele>49</ele>
<time>2011-04-30T17:28:05Z</time>
</trkpt>
<trkpt lat="45.50567" lon="13.59206">
<ele>49</ele>
<time>2011-04-30T17:28:08Z</time>
</trkpt>
<trkpt lat="45.50565" lon="13.59214">
<ele>49</ele>
<time>2011-04-30T17:28:11Z</time>
</trkpt>
<trkpt lat="45.50564" lon="13.59221">
<ele>49</ele>
<time>2011-04-30T17:28:14Z</time>
</trkpt>
<trkpt lat="45.50563" lon="13.59229">
<ele>49</ele>
<time>2011-04-30T17:28:17Z</time>
</trkpt>
<trkpt lat="45.50562" lon="13.59236">
<ele>49</ele>
<time>2011-04-30T17:28:20Z</time>
</trkpt>
<trkpt lat="45.50561" lon="13.59244">
<ele>49</ele>
<time>2011-04-30T17:28:23Z</time>
</trkpt>
<trkpt lat="45.5056" lon="13.59251">
<ele>49</ele>
<time>2011-04-30T17:28:26Z</time>
</trkpt>
<trkpt lat="45.50559" lon="13.59257">
<ele>49</ele>
<time>2011-04-30T17:28:29Z</time>
</trkpt>
<trkpt lat="45.50558" lon="13.59264">
<ele>49</ele>
<time>2011-04-30T17:28:32Z</time>
</trkpt>
<trkpt lat="45.50557" lon="13.59271">
<ele>49</ele>
<time>2011-04-30T17:28:35Z</time>
</trkpt>
<trkpt lat="45.50556" lon="13.59278">
<ele>49</ele>
<time>2011-04-30T17:28:38Z</time>
</trkpt>
<trkpt lat="45.50556" lon="13.59285">
<ele>49</ele>
<time>2011-04-30T17:28:41Z</time>
</trkpt>
<trkpt lat="45.50555" lon="13.59292">
<ele>49</ele>
<time>2011-04-30T17:28:44Z</time>
</trkpt>
<trkpt lat="45.50554" lon="13.59299">
<ele>49</ele>
<time>2011-04-30T17:28:47Z</time>
</trkpt>
<trkpt lat="45.50554" lon="13.59306">
<ele>49</ele>
<time>2011-04-30T17:28:50Z</time>
</trkpt>
<trkpt lat="45.50553" lon="13.59313">
<ele>49</ele>
<time>2011-04-30T17:28:53Z</time>
</trkpt>
<trkpt lat="45.50552" lon="13.5932">
<ele>49</ele>
<time>2011-04-30T17:28:56Z</time>
</trkpt>
<trkpt lat="45.50551" lon="13.59327">
<ele>49</ele>
<time>2011-04-30T17:28:59Z</time>
</trkpt>
<trkpt lat="45.50551" lon="13.59335">
<ele>49</ele>
<time>2011-04-30T17:29:02Z</time>
</trkpt>
<trkpt lat="45.5055" lon="13.59342">
<ele>49</ele>
<time>2011-04-30T17:29:05Z</time>
</trkpt>
<trkpt lat="45.50549" lon="13.59349">
<ele>49</ele>
<time>2011-04-30T17:29:08Z</time>
</trkpt>
<trkpt lat="45.50549" lon="13.59356">
<ele>49</ele>
<time>2011-04-30T17:29:11Z</time>
</trkpt>
<trkpt lat="45.50548" lon="13.59362">
<ele>48</ele>
<time>2011-04-30T17:29:14Z</time>
</trkpt>
<trkpt lat="45.50548" lon="13.59369">
<ele>48</ele>
<time>2011-04-30T17:29:17Z</time>
</trkpt>
<trkpt lat="45.50548" lon="13.59376">
<ele>48</ele>
<time>2011-04-30T17:29:20Z</time>
</trkpt>
<trkpt lat="45.50547" lon="13.59382">
<ele>48</ele>
<time>2011-04-30T17:29:23Z</time>
</trkpt>
<trkpt lat="45.50547" lon="13.5939">
<ele>48</ele>
<time>2011-04-30T17:29:27Z</time>
</trkpt>
<trkpt lat="45.50546" lon="13.59398">
<ele>48</ele>
<time>2011-04-30T17:29:31Z</time>
</trkpt>
<trkpt lat="45.50545" lon="13.59405">
<ele>48</ele>
<time>2011-04-30T17:29:35Z</time>
</trkpt>
<trkpt lat="45.50544" lon="13.59412">
<ele>48</ele>
<time>2011-04-30T17:29:39Z</time>
</trkpt>
<trkpt lat="45.50543" lon="13.5942">
<ele>48</ele>
<time>2011-04-30T17:29:43Z</time>
</trkpt>
<trkpt lat="45.50542" lon="13.59428">
<ele>48</ele>
<time>2011-04-30T17:29:47Z</time>
</trkpt>
<trkpt lat="45.50541" lon="13.59434">
<ele>48</ele>
<time>2011-04-30T17:29:50Z</time>
</trkpt>
<trkpt lat="45.50541" lon="13.59441">
<ele>47</ele>
<time>2011-04-30T17:29:53Z</time>
</trkpt>
<trkpt lat="45.5054" lon="13.59449">
<ele>47</ele>
<time>2011-04-30T17:29:57Z</time>
</trkpt>
<trkpt lat="45.50539" lon="13.59456">
<ele>47</ele>
<time>2011-04-30T17:30:00Z</time>
</trkpt>
<trkpt lat="45.50538" lon="13.59462">
<ele>47</ele>
<time>2011-04-30T17:30:03Z</time>
</trkpt>
<trkpt lat="45.50537" lon="13.59469">
<ele>47</ele>
<time>2011-04-30T17:30:06Z</time>
</trkpt>
<trkpt lat="45.50536" lon="13.59475">
<ele>47</ele>
<time>2011-04-30T17:30:09Z</time>
</trkpt>
<trkpt lat="45.50535" lon="13.59482">
<ele>47</ele>
<time>2011-04-30T17:30:12Z</time>
</trkpt>
<trkpt lat="45.50534" lon="13.59489">
<ele>47</ele>
<time>2011-04-30T17:30:15Z</time>
</trkpt>
<trkpt lat="45.50533" lon="13.59496">
<ele>47</ele>
<time>2011-04-30T17:30:18Z</time>
</trkpt>
<trkpt lat="45.50531" lon="13.59502">
<ele>47</ele>
<time>2011-04-30T17:30:21Z</time>
</trkpt>
<trkpt lat="45.50529" lon="13.59508">
<ele>47</ele>
<time>2011-04-30T17:30:24Z</time>
</trkpt>
<trkpt lat="45.50526" lon="13.59515">
<ele>47</ele>
<time>2011-04-30T17:30:27Z</time>
</trkpt>
<trkpt lat="45.50524" lon="13.5952">
<ele>47</ele>
<time>2011-04-30T17:30:30Z</time>
</trkpt>
<trkpt lat="45.50522" lon="13.59526">
<ele>47</ele>
<time>2011-04-30T17:30:33Z</time>
</trkpt>
<trkpt lat="45.5052" lon="13.59533">
<ele>47</ele>
<time>2011-04-30T17:30:36Z</time>
</trkpt>
<trkpt lat="45.50517" lon="13.59539">
<ele>47</ele>
<time>2011-04-30T17:30:39Z</time>
</trkpt>
<trkpt lat="45.50515" lon="13.59545">
<ele>47</ele>
<time>2011-04-30T17:30:42Z</time>
</trkpt>
<trkpt lat="45.50513" lon="13.59551">
<ele>47</ele>
<time>2011-04-30T17:30:45Z</time>
</trkpt>
<trkpt lat="45.50511" lon="13.59557">
<ele>47</ele>
<time>2011-04-30T17:30:48Z</time>
</trkpt>
<trkpt lat="45.50509" lon="13.59565">
<ele>47</ele>
<time>2011-04-30T17:30:52Z</time>
</trkpt>
<trkpt lat="45.50506" lon="13.5957">
<ele>47</ele>
<time>2011-04-30T17:30:56Z</time>
</trkpt>
<trkpt lat="45.50501" lon="13.59574">
<ele>47</ele>
<time>2011-04-30T17:31:01Z</time>
</trkpt>
<trkpt lat="45.50497" lon="13.5957">
<ele>47</ele>
<time>2011-04-30T17:31:07Z</time>
</trkpt>
<trkpt lat="45.50493" lon="13.59567">
<ele>47</ele>
<time>2011-04-30T17:31:24Z</time>
</trkpt>
<trkpt lat="45.5049" lon="13.59573">
<ele>47</ele>
<time>2011-04-30T17:31:31Z</time>
</trkpt>
<trkpt lat="45.50488" lon="13.5958">
<ele>47</ele>
<time>2011-04-30T17:31:38Z</time>
</trkpt>
<trkpt lat="45.50486" lon="13.59586">
<ele>47</ele>
<time>2011-04-30T17:31:44Z</time>
</trkpt>
<trkpt lat="45.50485" lon="13.59593">
<ele>47</ele>
<time>2011-04-30T17:31:49Z</time>
</trkpt>
<trkpt lat="45.50484" lon="13.596">
<ele>47</ele>
<time>2011-04-30T17:31:53Z</time>
</trkpt>
<trkpt lat="45.50483" lon="13.59607">
<ele>47</ele>
<time>2011-04-30T17:31:58Z</time>
</trkpt>
<trkpt lat="45.50482" lon="13.59614">
<ele>47</ele>
<time>2011-04-30T17:32:02Z</time>
</trkpt>
<trkpt lat="45.50481" lon="13.59621">
<ele>47</ele>
<time>2011-04-30T17:32:06Z</time>
</trkpt>
<trkpt lat="45.5048" lon="13.59628">
<ele>47</ele>
<time>2011-04-30T17:32:10Z</time>
</trkpt>
<trkpt lat="45.50479" lon="13.59635">
<ele>47</ele>
<time>2011-04-30T17:32:15Z</time>
</trkpt>
<trkpt lat="45.50479" lon="13.59642">
<ele>47</ele>
<time>2011-04-30T17:32:20Z</time>
</trkpt>
<trkpt lat="45.5048" lon="13.59649">
<ele>47</ele>
<time>2011-04-30T17:32:26Z</time>
</trkpt>
<trkpt lat="45.50482" lon="13.59655">
<ele>47</ele>
<time>2011-04-30T17:32:32Z</time>
</trkpt>
<trkpt lat="45.50485" lon="13.5966">
<ele>47</ele>
<time>2011-04-30T17:32:39Z</time>
</trkpt>
<trkpt lat="45.5049" lon="13.59662">
<ele>47</ele>
<time>2011-04-30T17:32:46Z</time>
</trkpt>
<trkpt lat="45.50494" lon="13.59665">
<ele>47</ele>
<time>2011-04-30T17:32:56Z</time>
</trkpt>
<trkpt lat="45.50498" lon="13.59662">
<ele>47</ele>
<time>2011-04-30T17:33:38Z</time>
</trkpt>
<trkpt lat="45.50502" lon="13.59665">
<ele>47</ele>
<time>2011-04-30T17:34:25Z</time>
</trkpt>
<trkpt lat="45.50506" lon="13.59664">
<ele>49</ele>
<time>2011-04-30T17:43:23Z</time>
</trkpt>
<trkpt lat="45.50503" lon="13.59668">
<ele>49</ele>
<time>2011-04-30T17:46:10Z</time>
</trkpt>
<trkpt lat="45.50498" lon="13.59666">
<ele>50</ele>
<time>2011-04-30T17:49:05Z</time>
</trkpt>
<trkpt lat="45.50502" lon="13.5967">
<ele>50</ele>
<time>2011-04-30T17:49:56Z</time>
</trkpt>
<trkpt lat="45.50498" lon="13.59671">
<ele>50</ele>
<time>2011-04-30T17:52:53Z</time>
</trkpt>
<trkpt lat="45.50502" lon="13.5967">
<ele>50</ele>
<time>2011-04-30T17:53:52Z</time>
</trkpt>
<trkpt lat="45.50507" lon="13.59669">
<ele>50</ele>
<time>2011-04-30T17:54:19Z</time>
</trkpt>
<trkpt lat="45.50502" lon="13.5967">
<ele>50</ele>
<time>2011-04-30T17:55:42Z</time>
</trkpt>
<trkpt lat="45.50504" lon="13.59664">
<ele>49</ele>
<time>2011-04-30T18:00:17Z</time>
</trkpt>
<trkpt lat="45.50501" lon="13.5966">
<ele>50</ele>
<time>2011-04-30T18:08:01Z</time>
</trkpt>
<trkpt lat="45.50503" lon="13.59666">
<ele>49</ele>
<time>2011-04-30T18:09:35Z</time>
</trkpt>
<trkpt lat="45.50507" lon="13.59666">
<ele>49</ele>
<time>2011-04-30T18:16:42Z</time>
</trkpt>
<trkpt lat="45.50503" lon="13.59663">
<ele>50</ele>
<time>2011-04-30T18:18:26Z</time>
</trkpt>
<trkpt lat="45.50499" lon="13.59665">
<ele>49</ele>
<time>2011-04-30T18:21:53Z</time>
</trkpt>
<trkpt lat="45.50494" lon="13.59663">
<ele>50</ele>
<time>2011-04-30T18:22:33Z</time>
</trkpt>
<trkpt lat="45.50499" lon="13.59664">
<ele>50</ele>
<time>2011-04-30T18:22:50Z</time>
</trkpt>
<trkpt lat="45.50503" lon="13.59664">
<ele>50</ele>
<time>2011-04-30T18:24:54Z</time>
</trkpt>
</trkseg>
</trk>
</gpx>
